<?xml version="1.0" encoding="UTF-8"?>
<gpx version="1.1" creator="Kurviger" xmlns="http://www.topografix.com/GPX/1/1" xmlns:xsi="http://www.w3.org/2001/XMLSchema-instance" xsi:schemaLocation="http://www.topografix.com/GPX/1/1 http://www.topografix.com/GPX/1/1/gpx.xsd http://www.garmin.com/xmlschemas/GpxExtensions/v3 http://www.garmin.com/xmlschemas/GpxExtensionsv3.xsd http://www.garmin.com/xmlschemas/TripExtensions/v1 http://www.garmin.com/xmlschemas/TripExtensionsv1.xsd" xmlns:gpxx="http://www.garmin.com/xmlschemas/GpxExtensions/v3" xmlns:trp="http://www.garmin.com/xmlschemas/TripExtensions/v1">
	<metadata>
		<name>Restaurant Schult, Dorsten - Hohe Mühle - Schustermuseum, Uedem</name>
		<copyright author="OpenStreetMap contributors"/>
		<link href="https://kurviger.com">
			<text>Kurviger.com GPX</text>
		</link>
		<time>2025-08-12T17:02:20.231Z</time>
	</metadata>
	<trk>
		<name>Restaurant Schult, Dorsten - Hohe Mühle - Schustermuseum, Uedem</name>
		<trkseg>
			<trkpt lat="51.65764" lon="6.90149">
				<ele>41.92</ele>
				<time>2025-08-12T17:02:20.230Z</time>
			</trkpt>
			<trkpt lat="51.65798" lon="6.90179">
				<ele>39.93</ele>
				<time>2025-08-12T17:02:32.116Z</time>
			</trkpt>
			<trkpt lat="51.65938" lon="6.89732">
				<ele>41.72</ele>
				<time>2025-08-12T17:03:03.555Z</time>
			</trkpt>
			<trkpt lat="51.65982" lon="6.89588">
				<ele>40.82</ele>
				<time>2025-08-12T17:03:11.951Z</time>
			</trkpt>
			<trkpt lat="51.6603" lon="6.89416">
				<ele>45.82</ele>
				<time>2025-08-12T17:03:20.892Z</time>
			</trkpt>
			<trkpt lat="51.66186" lon="6.88835">
				<ele>46.95</ele>
				<time>2025-08-12T17:03:44.679Z</time>
			</trkpt>
			<trkpt lat="51.66199" lon="6.88792">
				<ele>46.83</ele>
				<time>2025-08-12T17:03:46.147Z</time>
			</trkpt>
			<trkpt lat="51.66222" lon="6.8873">
				<ele>44.98</ele>
				<time>2025-08-12T17:03:48.289Z</time>
			</trkpt>
			<trkpt lat="51.66258" lon="6.88646">
				<ele>43.41</ele>
				<time>2025-08-12T17:03:51.174Z</time>
			</trkpt>
			<trkpt lat="51.66273" lon="6.88618">
				<ele>43.77</ele>
				<time>2025-08-12T17:03:52.180Z</time>
			</trkpt>
			<trkpt lat="51.66299" lon="6.88569">
				<ele>45</ele>
				<time>2025-08-12T17:03:53.887Z</time>
			</trkpt>
			<trkpt lat="51.66363" lon="6.8848">
				<ele>45.7</ele>
				<time>2025-08-12T17:03:57.311Z</time>
			</trkpt>
			<trkpt lat="51.66398" lon="6.8844">
				<ele>45.39</ele>
				<time>2025-08-12T17:03:58.962Z</time>
			</trkpt>
			<trkpt lat="51.66466" lon="6.88382">
				<ele>42.16</ele>
				<time>2025-08-12T17:04:01.793Z</time>
			</trkpt>
			<trkpt lat="51.66537" lon="6.88324">
				<ele>38.94</ele>
				<time>2025-08-12T17:04:04.570Z</time>
			</trkpt>
			<trkpt lat="51.66589" lon="6.88278">
				<ele>39.97</ele>
				<time>2025-08-12T17:04:06.554Z</time>
			</trkpt>
			<trkpt lat="51.66622" lon="6.88243">
				<ele>40.68</ele>
				<time>2025-08-12T17:04:07.841Z</time>
			</trkpt>
			<trkpt lat="51.66654" lon="6.88203">
				<ele>40.53</ele>
				<time>2025-08-12T17:04:09.136Z</time>
			</trkpt>
			<trkpt lat="51.66678" lon="6.8817">
				<ele>40.87</ele>
				<time>2025-08-12T17:04:10.130Z</time>
			</trkpt>
			<trkpt lat="51.66702" lon="6.8813">
				<ele>41</ele>
				<time>2025-08-12T17:04:11.204Z</time>
			</trkpt>
			<trkpt lat="51.66725" lon="6.88089">
				<ele>40.92</ele>
				<time>2025-08-12T17:04:12.261Z</time>
			</trkpt>
			<trkpt lat="51.66758" lon="6.88017">
				<ele>38.4</ele>
				<time>2025-08-12T17:04:13.954Z</time>
			</trkpt>
			<trkpt lat="51.66788" lon="6.87936">
				<ele>37.56</ele>
				<time>2025-08-12T17:04:15.723Z</time>
			</trkpt>
			<trkpt lat="51.66813" lon="6.87846">
				<ele>37.3</ele>
				<time>2025-08-12T17:04:17.566Z</time>
			</trkpt>
			<trkpt lat="51.66824" lon="6.87797">
				<ele>36.66</ele>
				<time>2025-08-12T17:04:18.542Z</time>
			</trkpt>
			<trkpt lat="51.66863" lon="6.87585">
				<ele>34.67</ele>
				<time>2025-08-12T17:04:22.745Z</time>
			</trkpt>
			<trkpt lat="51.66867" lon="6.87563">
				<ele>34.84</ele>
				<time>2025-08-12T17:04:23.190Z</time>
			</trkpt>
			<trkpt lat="51.67007" lon="6.86792">
				<ele>32</ele>
				<time>2025-08-12T17:04:41.350Z</time>
			</trkpt>
			<trkpt lat="51.6702" lon="6.86716">
				<ele>31.63</ele>
				<time>2025-08-12T17:04:43.534Z</time>
			</trkpt>
			<trkpt lat="51.67025" lon="6.86672">
				<ele>31.08</ele>
				<time>2025-08-12T17:04:44.816Z</time>
			</trkpt>
			<trkpt lat="51.67031" lon="6.86584">
				<ele>30.86</ele>
				<time>2025-08-12T17:04:47.450Z</time>
			</trkpt>
			<trkpt lat="51.6703" lon="6.86516">
				<ele>31</ele>
				<time>2025-08-12T17:04:49.566Z</time>
			</trkpt>
			<trkpt lat="51.67018" lon="6.86311">
				<ele>35.8</ele>
				<time>2025-08-12T17:04:56.500Z</time>
			</trkpt>
			<trkpt lat="51.6702" lon="6.86184">
				<ele>35</ele>
				<time>2025-08-12T17:05:01.212Z</time>
			</trkpt>
			<trkpt lat="51.67025" lon="6.86114">
				<ele>38.74</ele>
				<time>2025-08-12T17:05:03.938Z</time>
			</trkpt>
			<trkpt lat="51.67031" lon="6.86056">
				<ele>40.82</ele>
				<time>2025-08-12T17:05:06.235Z</time>
			</trkpt>
			<trkpt lat="51.67088" lon="6.85636">
				<ele>41</ele>
				<time>2025-08-12T17:05:23.610Z</time>
			</trkpt>
			<trkpt lat="51.671" lon="6.85537">
				<ele>46.5</ele>
				<time>2025-08-12T17:05:27.830Z</time>
			</trkpt>
			<trkpt lat="51.67106" lon="6.85444">
				<ele>46.65</ele>
				<time>2025-08-12T17:05:31.789Z</time>
			</trkpt>
			<trkpt lat="51.67108" lon="6.85348">
				<ele>46.27</ele>
				<time>2025-08-12T17:05:35.902Z</time>
			</trkpt>
			<trkpt lat="51.67106" lon="6.85292">
				<ele>48.99</ele>
				<time>2025-08-12T17:05:38.325Z</time>
			</trkpt>
			<trkpt lat="51.67088" lon="6.85024">
				<ele>42.75</ele>
				<time>2025-08-12T17:05:50.188Z</time>
			</trkpt>
			<trkpt lat="51.67079" lon="6.84834">
				<ele>38.51</ele>
				<time>2025-08-12T17:05:58.782Z</time>
			</trkpt>
			<trkpt lat="51.6706" lon="6.84568">
				<ele>41.64</ele>
				<time>2025-08-12T17:06:11.137Z</time>
			</trkpt>
			<trkpt lat="51.67038" lon="6.84219">
				<ele>39.09</ele>
				<time>2025-08-12T17:06:27.793Z</time>
			</trkpt>
			<trkpt lat="51.67032" lon="6.84124">
				<ele>40.74</ele>
				<time>2025-08-12T17:06:32.414Z</time>
			</trkpt>
			<trkpt lat="51.67026" lon="6.8408">
				<ele>38.95</ele>
				<time>2025-08-12T17:06:34.607Z</time>
			</trkpt>
			<trkpt lat="51.67018" lon="6.84041">
				<ele>38.17</ele>
				<time>2025-08-12T17:06:36.614Z</time>
			</trkpt>
			<trkpt lat="51.67007" lon="6.84005">
				<ele>37.89</ele>
				<time>2025-08-12T17:06:38.581Z</time>
			</trkpt>
			<trkpt lat="51.66971" lon="6.83926">
				<ele>36.41</ele>
				<time>2025-08-12T17:06:43.411Z</time>
			</trkpt>
			<trkpt lat="51.66961" lon="6.83894">
				<ele>37.18</ele>
				<time>2025-08-12T17:06:45.185Z</time>
			</trkpt>
			<trkpt lat="51.66958" lon="6.83879">
				<ele>37.34</ele>
				<time>2025-08-12T17:06:45.967Z</time>
			</trkpt>
			<trkpt lat="51.66956" lon="6.83855">
				<ele>37.15</ele>
				<time>2025-08-12T17:06:47.171Z</time>
			</trkpt>
			<trkpt lat="51.66956" lon="6.8384">
				<ele>37.12</ele>
				<time>2025-08-12T17:06:47.917Z</time>
			</trkpt>
			<trkpt lat="51.6696" lon="6.83815">
				<ele>36.81</ele>
				<time>2025-08-12T17:06:49.204Z</time>
			</trkpt>
			<trkpt lat="51.66968" lon="6.83794">
				<ele>36.25</ele>
				<time>2025-08-12T17:06:50.435Z</time>
			</trkpt>
			<trkpt lat="51.67025" lon="6.83704">
				<ele>27.74</ele>
				<time>2025-08-12T17:06:56.894Z</time>
			</trkpt>
			<trkpt lat="51.6704" lon="6.83677">
				<ele>28.45</ele>
				<time>2025-08-12T17:06:58.725Z</time>
			</trkpt>
			<trkpt lat="51.67048" lon="6.83651">
				<ele>29.3</ele>
				<time>2025-08-12T17:07:00.194Z</time>
			</trkpt>
			<trkpt lat="51.67051" lon="6.83626">
				<ele>29.84</ele>
				<time>2025-08-12T17:07:01.485Z</time>
			</trkpt>
			<trkpt lat="51.6705" lon="6.83602">
				<ele>29.62</ele>
				<time>2025-08-12T17:07:02.707Z</time>
			</trkpt>
			<trkpt lat="51.67042" lon="6.83569">
				<ele>29.68</ele>
				<time>2025-08-12T17:07:04.511Z</time>
			</trkpt>
			<trkpt lat="51.67024" lon="6.83525">
				<ele>30.9</ele>
				<time>2025-08-12T17:07:07.202Z</time>
			</trkpt>
			<trkpt lat="51.67009" lon="6.83493">
				<ele>31.16</ele>
				<time>2025-08-12T17:07:09.256Z</time>
			</trkpt>
			<trkpt lat="51.66952" lon="6.83355">
				<ele>32</ele>
				<time>2025-08-12T17:07:17.803Z</time>
			</trkpt>
			<trkpt lat="51.66899" lon="6.83203">
				<ele>32.41</ele>
				<time>2025-08-12T17:07:26.887Z</time>
			</trkpt>
			<trkpt lat="51.66561" lon="6.82226">
				<ele>31.09</ele>
				<time>2025-08-12T17:08:27.165Z</time>
			</trkpt>
			<trkpt lat="51.66546" lon="6.82178">
				<ele>32.79</ele>
				<time>2025-08-12T17:08:30.136Z</time>
			</trkpt>
			<trkpt lat="51.66524" lon="6.82095">
				<ele>37</ele>
				<time>2025-08-12T17:08:35.139Z</time>
			</trkpt>
			<trkpt lat="51.66502" lon="6.82001">
				<ele>37.05</ele>
				<time>2025-08-12T17:08:40.726Z</time>
			</trkpt>
			<trkpt lat="51.66421" lon="6.8161">
				<ele>31.16</ele>
				<time>2025-08-12T17:09:03.839Z</time>
			</trkpt>
			<trkpt lat="51.66407" lon="6.81556">
				<ele>31</ele>
				<time>2025-08-12T17:09:07.143Z</time>
			</trkpt>
			<trkpt lat="51.66394" lon="6.81516">
				<ele>33.72</ele>
				<time>2025-08-12T17:09:09.696Z</time>
			</trkpt>
			<trkpt lat="51.66369" lon="6.81447">
				<ele>36.62</ele>
				<time>2025-08-12T17:09:14.220Z</time>
			</trkpt>
			<trkpt lat="51.66344" lon="6.81392">
				<ele>39.87</ele>
				<time>2025-08-12T17:09:18.087Z</time>
			</trkpt>
			<trkpt lat="51.65732" lon="6.80247">
				<ele>34.63</ele>
				<time>2025-08-12T17:10:44.864Z</time>
			</trkpt>
			<trkpt lat="51.65705" lon="6.80196">
				<ele>35.26</ele>
				<time>2025-08-12T17:10:48.736Z</time>
			</trkpt>
			<trkpt lat="51.65654" lon="6.8009">
				<ele>34.32</ele>
				<time>2025-08-12T17:10:56.480Z</time>
			</trkpt>
			<trkpt lat="51.65562" lon="6.79867">
				<ele>35.26</ele>
				<time>2025-08-12T17:11:11.931Z</time>
			</trkpt>
			<trkpt lat="51.65191" lon="6.78929">
				<ele>36.86</ele>
				<time>2025-08-12T17:12:15.615Z</time>
			</trkpt>
			<trkpt lat="51.65155" lon="6.78857">
				<ele>36.95</ele>
				<time>2025-08-12T17:12:20.849Z</time>
			</trkpt>
			<trkpt lat="51.65124" lon="6.78806">
				<ele>35.4</ele>
				<time>2025-08-12T17:12:24.882Z</time>
			</trkpt>
			<trkpt lat="51.65085" lon="6.78756">
				<ele>34.15</ele>
				<time>2025-08-12T17:12:29.410Z</time>
			</trkpt>
			<trkpt lat="51.65062" lon="6.7873">
				<ele>32.46</ele>
				<time>2025-08-12T17:12:31.959Z</time>
			</trkpt>
			<trkpt lat="51.65035" lon="6.78705">
				<ele>32.13</ele>
				<time>2025-08-12T17:12:34.779Z</time>
			</trkpt>
			<trkpt lat="51.65005" lon="6.78682">
				<ele>32.8</ele>
				<time>2025-08-12T17:12:37.784Z</time>
			</trkpt>
			<trkpt lat="51.64964" lon="6.78656">
				<ele>32.62</ele>
				<time>2025-08-12T17:12:41.761Z</time>
			</trkpt>
			<trkpt lat="51.64812" lon="6.78579">
				<ele>32</ele>
				<time>2025-08-12T17:12:56.068Z</time>
			</trkpt>
			<trkpt lat="51.64791" lon="6.78565">
				<ele>31.82</ele>
				<time>2025-08-12T17:12:58.098Z</time>
			</trkpt>
			<trkpt lat="51.64747" lon="6.78529">
				<ele>31.93</ele>
				<time>2025-08-12T17:13:02.497Z</time>
			</trkpt>
			<trkpt lat="51.64721" lon="6.78501">
				<ele>31.95</ele>
				<time>2025-08-12T17:13:05.278Z</time>
			</trkpt>
			<trkpt lat="51.647" lon="6.78473">
				<ele>30.21</ele>
				<time>2025-08-12T17:13:07.697Z</time>
			</trkpt>
			<trkpt lat="51.64672" lon="6.78431">
				<ele>29.57</ele>
				<time>2025-08-12T17:13:11.086Z</time>
			</trkpt>
			<trkpt lat="51.64648" lon="6.78386">
				<ele>30.06</ele>
				<time>2025-08-12T17:13:14.340Z</time>
			</trkpt>
			<trkpt lat="51.6463" lon="6.78345">
				<ele>31</ele>
				<time>2025-08-12T17:13:17.087Z</time>
			</trkpt>
			<trkpt lat="51.64617" lon="6.78308">
				<ele>30.09</ele>
				<time>2025-08-12T17:13:19.409Z</time>
			</trkpt>
			<trkpt lat="51.64606" lon="6.78273">
				<ele>29.86</ele>
				<time>2025-08-12T17:13:21.547Z</time>
			</trkpt>
			<trkpt lat="51.64596" lon="6.78232">
				<ele>29.53</ele>
				<time>2025-08-12T17:13:23.944Z</time>
			</trkpt>
			<trkpt lat="51.64587" lon="6.78187">
				<ele>30</ele>
				<time>2025-08-12T17:13:26.511Z</time>
			</trkpt>
			<trkpt lat="51.6458" lon="6.78142">
				<ele>30.77</ele>
				<time>2025-08-12T17:13:29.025Z</time>
			</trkpt>
			<trkpt lat="51.64575" lon="6.78084">
				<ele>30.02</ele>
				<time>2025-08-12T17:13:32.190Z</time>
			</trkpt>
			<trkpt lat="51.64573" lon="6.78029">
				<ele>29.05</ele>
				<time>2025-08-12T17:13:35.160Z</time>
			</trkpt>
			<trkpt lat="51.64574" lon="6.77982">
				<ele>29.62</ele>
				<time>2025-08-12T17:13:37.689Z</time>
			</trkpt>
			<trkpt lat="51.64586" lon="6.77796">
				<ele>31.83</ele>
				<time>2025-08-12T17:13:47.686Z</time>
			</trkpt>
			<trkpt lat="51.64606" lon="6.77555">
				<ele>31.33</ele>
				<time>2025-08-12T17:14:00.537Z</time>
			</trkpt>
			<trkpt lat="51.64666" lon="6.76894">
				<ele>29.18</ele>
				<time>2025-08-12T17:14:34.893Z</time>
			</trkpt>
			<trkpt lat="51.64678" lon="6.767">
				<ele>25.18</ele>
				<time>2025-08-12T17:14:44.629Z</time>
			</trkpt>
			<trkpt lat="51.6468" lon="6.76593">
				<ele>24.37</ele>
				<time>2025-08-12T17:14:49.915Z</time>
			</trkpt>
			<trkpt lat="51.64679" lon="6.76459">
				<ele>25.53</ele>
				<time>2025-08-12T17:14:56.470Z</time>
			</trkpt>
			<trkpt lat="51.64677" lon="6.76407">
				<ele>27.43</ele>
				<time>2025-08-12T17:14:58.999Z</time>
			</trkpt>
			<trkpt lat="51.64669" lon="6.76295">
				<ele>28.92</ele>
				<time>2025-08-12T17:15:04.435Z</time>
			</trkpt>
			<trkpt lat="51.64664" lon="6.7624">
				<ele>27.9</ele>
				<time>2025-08-12T17:15:07.096Z</time>
			</trkpt>
			<trkpt lat="51.6465" lon="6.76139">
				<ele>27.98</ele>
				<time>2025-08-12T17:15:12.016Z</time>
			</trkpt>
			<trkpt lat="51.64633" lon="6.76044">
				<ele>30.93</ele>
				<time>2025-08-12T17:15:16.674Z</time>
			</trkpt>
			<trkpt lat="51.6464" lon="6.76037">
				<ele>30.92</ele>
				<time>2025-08-12T17:15:17.297Z</time>
			</trkpt>
			<trkpt lat="51.64643" lon="6.76026">
				<ele>30.67</ele>
				<time>2025-08-12T17:15:17.859Z</time>
			</trkpt>
			<trkpt lat="51.64643" lon="6.76018">
				<ele>30.68</ele>
				<time>2025-08-12T17:15:18.234Z</time>
			</trkpt>
			<trkpt lat="51.64638" lon="6.76005">
				<ele>30.99</ele>
				<time>2025-08-12T17:15:18.949Z</time>
			</trkpt>
			<trkpt lat="51.6463" lon="6.75999">
				<ele>30.66</ele>
				<time>2025-08-12T17:15:19.613Z</time>
			</trkpt>
			<trkpt lat="51.64625" lon="6.76">
				<ele>30.51</ele>
				<time>2025-08-12T17:15:19.992Z</time>
			</trkpt>
			<trkpt lat="51.64581" lon="6.75768">
				<ele>25.22</ele>
				<time>2025-08-12T17:15:31.211Z</time>
			</trkpt>
			<trkpt lat="51.64532" lon="6.75502">
				<ele>25.62</ele>
				<time>2025-08-12T17:15:43.816Z</time>
			</trkpt>
			<trkpt lat="51.64507" lon="6.75376">
				<ele>26.31</ele>
				<time>2025-08-12T17:15:49.747Z</time>
			</trkpt>
			<trkpt lat="51.64496" lon="6.75327">
				<ele>26.96</ele>
				<time>2025-08-12T17:15:52.070Z</time>
			</trkpt>
			<trkpt lat="51.64465" lon="6.75216">
				<ele>29.29</ele>
				<time>2025-08-12T17:15:57.469Z</time>
			</trkpt>
			<trkpt lat="51.64421" lon="6.7509">
				<ele>26.56</ele>
				<time>2025-08-12T17:16:03.834Z</time>
			</trkpt>
			<trkpt lat="51.64283" lon="6.74736">
				<ele>31.37</ele>
				<time>2025-08-12T17:16:21.976Z</time>
			</trkpt>
			<trkpt lat="51.64271" lon="6.74698">
				<ele>31.13</ele>
				<time>2025-08-12T17:16:23.806Z</time>
			</trkpt>
			<trkpt lat="51.64239" lon="6.74566">
				<ele>31.87</ele>
				<time>2025-08-12T17:16:29.868Z</time>
			</trkpt>
			<trkpt lat="51.64201" lon="6.74387">
				<ele>33.01</ele>
				<time>2025-08-12T17:16:37.908Z</time>
			</trkpt>
			<trkpt lat="51.64187" lon="6.74329">
				<ele>32.9</ele>
				<time>2025-08-12T17:16:40.541Z</time>
			</trkpt>
			<trkpt lat="51.64124" lon="6.7411">
				<ele>33.5</ele>
				<time>2025-08-12T17:16:50.706Z</time>
			</trkpt>
			<trkpt lat="51.64103" lon="6.74024">
				<ele>34.27</ele>
				<time>2025-08-12T17:16:54.580Z</time>
			</trkpt>
			<trkpt lat="51.64094" lon="6.73976">
				<ele>34.42</ele>
				<time>2025-08-12T17:16:56.679Z</time>
			</trkpt>
			<trkpt lat="51.64088" lon="6.73942">
				<ele>34.2</ele>
				<time>2025-08-12T17:16:58.156Z</time>
			</trkpt>
			<trkpt lat="51.64077" lon="6.73839">
				<ele>34.32</ele>
				<time>2025-08-12T17:17:02.519Z</time>
			</trkpt>
			<trkpt lat="51.64073" lon="6.73761">
				<ele>33.67</ele>
				<time>2025-08-12T17:17:05.781Z</time>
			</trkpt>
			<trkpt lat="51.64071" lon="6.73671">
				<ele>33.11</ele>
				<time>2025-08-12T17:17:09.529Z</time>
			</trkpt>
			<trkpt lat="51.64065" lon="6.72864">
				<ele>28.12</ele>
				<time>2025-08-12T17:17:42.996Z</time>
			</trkpt>
			<trkpt lat="51.64061" lon="6.72794">
				<ele>29.38</ele>
				<time>2025-08-12T17:17:45.912Z</time>
			</trkpt>
			<trkpt lat="51.64053" lon="6.72725">
				<ele>31.76</ele>
				<time>2025-08-12T17:17:48.826Z</time>
			</trkpt>
			<trkpt lat="51.64044" lon="6.72674">
				<ele>30.19</ele>
				<time>2025-08-12T17:17:51.029Z</time>
			</trkpt>
			<trkpt lat="51.64031" lon="6.72618">
				<ele>30.12</ele>
				<time>2025-08-12T17:17:53.515Z</time>
			</trkpt>
			<trkpt lat="51.63971" lon="6.72415">
				<ele>31</ele>
				<time>2025-08-12T17:18:02.883Z</time>
			</trkpt>
			<trkpt lat="51.63921" lon="6.72258">
				<ele>28.68</ele>
				<time>2025-08-12T17:18:10.266Z</time>
			</trkpt>
			<trkpt lat="51.63882" lon="6.72147">
				<ele>29.08</ele>
				<time>2025-08-12T17:18:15.622Z</time>
			</trkpt>
			<trkpt lat="51.63837" lon="6.72034">
				<ele>27.25</ele>
				<time>2025-08-12T17:18:21.281Z</time>
			</trkpt>
			<trkpt lat="51.63733" lon="6.71808">
				<ele>31.09</ele>
				<time>2025-08-12T17:18:33.223Z</time>
			</trkpt>
			<trkpt lat="51.63655" lon="6.71668">
				<ele>32.52</ele>
				<time>2025-08-12T17:18:41.280Z</time>
			</trkpt>
			<trkpt lat="51.63585" lon="6.71549">
				<ele>34.73</ele>
				<time>2025-08-12T17:18:48.356Z</time>
			</trkpt>
			<trkpt lat="51.63547" lon="6.71486">
				<ele>33.02</ele>
				<time>2025-08-12T17:18:52.169Z</time>
			</trkpt>
			<trkpt lat="51.63483" lon="6.71388">
				<ele>32.7</ele>
				<time>2025-08-12T17:18:58.381Z</time>
			</trkpt>
			<trkpt lat="51.63445" lon="6.71326">
				<ele>32.66</ele>
				<time>2025-08-12T17:19:02.209Z</time>
			</trkpt>
			<trkpt lat="51.63378" lon="6.7123">
				<ele>28.92</ele>
				<time>2025-08-12T17:19:08.596Z</time>
			</trkpt>
			<trkpt lat="51.6332" lon="6.71161">
				<ele>28.44</ele>
				<time>2025-08-12T17:19:13.771Z</time>
			</trkpt>
			<trkpt lat="51.63258" lon="6.71096">
				<ele>29.17</ele>
				<time>2025-08-12T17:19:19.118Z</time>
			</trkpt>
			<trkpt lat="51.63225" lon="6.71067">
				<ele>29</ele>
				<time>2025-08-12T17:19:21.851Z</time>
			</trkpt>
			<trkpt lat="51.63169" lon="6.71022">
				<ele>27.74</ele>
				<time>2025-08-12T17:19:26.424Z</time>
			</trkpt>
			<trkpt lat="51.63113" lon="6.70987">
				<ele>30.02</ele>
				<time>2025-08-12T17:19:30.843Z</time>
			</trkpt>
			<trkpt lat="51.6304" lon="6.70947">
				<ele>34.18</ele>
				<time>2025-08-12T17:19:36.558Z</time>
			</trkpt>
			<trkpt lat="51.63034" lon="6.70938">
				<ele>34.13</ele>
				<time>2025-08-12T17:19:37.169Z</time>
			</trkpt>
			<trkpt lat="51.63024" lon="6.7092">
				<ele>33.28</ele>
				<time>2025-08-12T17:19:38.284Z</time>
			</trkpt>
			<trkpt lat="51.63019" lon="6.70883">
				<ele>30.76</ele>
				<time>2025-08-12T17:19:40.028Z</time>
			</trkpt>
			<trkpt lat="51.63018" lon="6.70872">
				<ele>30.2</ele>
				<time>2025-08-12T17:19:40.540Z</time>
			</trkpt>
			<trkpt lat="51.63014" lon="6.70856">
				<ele>29.37</ele>
				<time>2025-08-12T17:19:41.332Z</time>
			</trkpt>
			<trkpt lat="51.63007" lon="6.70829">
				<ele>28.3</ele>
				<time>2025-08-12T17:19:42.675Z</time>
			</trkpt>
			<trkpt lat="51.62987" lon="6.70782">
				<ele>27.53</ele>
				<time>2025-08-12T17:19:45.286Z</time>
			</trkpt>
			<trkpt lat="51.62976" lon="6.70753">
				<ele>28.04</ele>
				<time>2025-08-12T17:19:46.840Z</time>
			</trkpt>
			<trkpt lat="51.62966" lon="6.70713">
				<ele>28.12</ele>
				<time>2025-08-12T17:19:48.809Z</time>
			</trkpt>
			<trkpt lat="51.62962" lon="6.70684">
				<ele>28.63</ele>
				<time>2025-08-12T17:19:50.164Z</time>
			</trkpt>
			<trkpt lat="51.62959" lon="6.70655">
				<ele>28.15</ele>
				<time>2025-08-12T17:19:51.505Z</time>
			</trkpt>
			<trkpt lat="51.62958" lon="6.70574">
				<ele>26.5</ele>
				<time>2025-08-12T17:19:55.196Z</time>
			</trkpt>
			<trkpt lat="51.62962" lon="6.69867">
				<ele>28.65</ele>
				<time>2025-08-12T17:20:27.917Z</time>
			</trkpt>
			<trkpt lat="51.62961" lon="6.69766">
				<ele>23.56</ele>
				<time>2025-08-12T17:20:32.768Z</time>
			</trkpt>
			<trkpt lat="51.62968" lon="6.69096">
				<ele>22.98</ele>
				<time>2025-08-12T17:21:07.140Z</time>
			</trkpt>
			<trkpt lat="51.62968" lon="6.68927">
				<ele>22.65</ele>
				<time>2025-08-12T17:21:16.598Z</time>
			</trkpt>
			<trkpt lat="51.62974" lon="6.68766">
				<ele>26.7</ele>
				<time>2025-08-12T17:21:26.737Z</time>
			</trkpt>
			<trkpt lat="51.62978" lon="6.68739">
				<ele>26.42</ele>
				<time>2025-08-12T17:21:28.549Z</time>
			</trkpt>
			<trkpt lat="51.62987" lon="6.68721">
				<ele>27.12</ele>
				<time>2025-08-12T17:21:30.037Z</time>
			</trkpt>
			<trkpt lat="51.63015" lon="6.68712">
				<ele>27.91</ele>
				<time>2025-08-12T17:21:33.006Z</time>
			</trkpt>
			<trkpt lat="51.63058" lon="6.68697">
				<ele>28.71</ele>
				<time>2025-08-12T17:21:36.736Z</time>
			</trkpt>
			<trkpt lat="51.63208" lon="6.68626">
				<ele>24.84</ele>
				<time>2025-08-12T17:21:49.387Z</time>
			</trkpt>
			<trkpt lat="51.63272" lon="6.68597">
				<ele>26.32</ele>
				<time>2025-08-12T17:21:54.522Z</time>
			</trkpt>
			<trkpt lat="51.63399" lon="6.68535">
				<ele>23.66</ele>
				<time>2025-08-12T17:22:04.369Z</time>
			</trkpt>
			<trkpt lat="51.63445" lon="6.68508">
				<ele>27.06</ele>
				<time>2025-08-12T17:22:07.875Z</time>
			</trkpt>
			<trkpt lat="51.63471" lon="6.68488">
				<ele>28.53</ele>
				<time>2025-08-12T17:22:09.908Z</time>
			</trkpt>
			<trkpt lat="51.63521" lon="6.68437">
				<ele>27.52</ele>
				<time>2025-08-12T17:22:14.017Z</time>
			</trkpt>
			<trkpt lat="51.63543" lon="6.68411">
				<ele>24.59</ele>
				<time>2025-08-12T17:22:15.882Z</time>
			</trkpt>
			<trkpt lat="51.63611" lon="6.68319">
				<ele>22</ele>
				<time>2025-08-12T17:22:21.828Z</time>
			</trkpt>
			<trkpt lat="51.63649" lon="6.68257">
				<ele>21.08</ele>
				<time>2025-08-12T17:22:25.363Z</time>
			</trkpt>
			<trkpt lat="51.63677" lon="6.68183">
				<ele>17.61</ele>
				<time>2025-08-12T17:22:28.819Z</time>
			</trkpt>
			<trkpt lat="51.63686" lon="6.68147">
				<ele>16.3</ele>
				<time>2025-08-12T17:22:30.347Z</time>
			</trkpt>
			<trkpt lat="51.63693" lon="6.68112">
				<ele>16</ele>
				<time>2025-08-12T17:22:31.785Z</time>
			</trkpt>
			<trkpt lat="51.637" lon="6.68055">
				<ele>19.19</ele>
				<time>2025-08-12T17:22:34.038Z</time>
			</trkpt>
			<trkpt lat="51.63702" lon="6.67997">
				<ele>30.73</ele>
				<time>2025-08-12T17:22:36.267Z</time>
			</trkpt>
			<trkpt lat="51.63698" lon="6.6794">
				<ele>35.15</ele>
				<time>2025-08-12T17:22:38.446Z</time>
			</trkpt>
			<trkpt lat="51.63694" lon="6.6791">
				<ele>31.36</ele>
				<time>2025-08-12T17:22:39.603Z</time>
			</trkpt>
			<trkpt lat="51.63683" lon="6.67855">
				<ele>24.37</ele>
				<time>2025-08-12T17:22:41.767Z</time>
			</trkpt>
			<trkpt lat="51.63662" lon="6.67784">
				<ele>22.12</ele>
				<time>2025-08-12T17:22:44.682Z</time>
			</trkpt>
			<trkpt lat="51.63642" lon="6.6773">
				<ele>24.58</ele>
				<time>2025-08-12T17:22:46.988Z</time>
			</trkpt>
			<trkpt lat="51.63588" lon="6.67588">
				<ele>23.01</ele>
				<time>2025-08-12T17:22:53.004Z</time>
			</trkpt>
			<trkpt lat="51.6357" lon="6.67538">
				<ele>23.74</ele>
				<time>2025-08-12T17:22:55.065Z</time>
			</trkpt>
			<trkpt lat="51.63558" lon="6.67496">
				<ele>26.25</ele>
				<time>2025-08-12T17:22:56.704Z</time>
			</trkpt>
			<trkpt lat="51.63547" lon="6.67452">
				<ele>28.65</ele>
				<time>2025-08-12T17:22:58.377Z</time>
			</trkpt>
			<trkpt lat="51.63539" lon="6.67405">
				<ele>28.41</ele>
				<time>2025-08-12T17:23:00.089Z</time>
			</trkpt>
			<trkpt lat="51.63531" lon="6.67335">
				<ele>25.94</ele>
				<time>2025-08-12T17:23:02.576Z</time>
			</trkpt>
			<trkpt lat="51.63528" lon="6.67284">
				<ele>24.32</ele>
				<time>2025-08-12T17:23:04.358Z</time>
			</trkpt>
			<trkpt lat="51.63529" lon="6.67132">
				<ele>23.11</ele>
				<time>2025-08-12T17:23:09.612Z</time>
			</trkpt>
			<trkpt lat="51.63533" lon="6.6669">
				<ele>24.54</ele>
				<time>2025-08-12T17:23:24.759Z</time>
			</trkpt>
			<trkpt lat="51.63544" lon="6.65554">
				<ele>24.79</ele>
				<time>2025-08-12T17:24:05.598Z</time>
			</trkpt>
			<trkpt lat="51.63548" lon="6.65156">
				<ele>27.21</ele>
				<time>2025-08-12T17:24:21.646Z</time>
			</trkpt>
			<trkpt lat="51.63555" lon="6.65027">
				<ele>24.97</ele>
				<time>2025-08-12T17:24:27.164Z</time>
			</trkpt>
			<trkpt lat="51.63561" lon="6.6496">
				<ele>23.21</ele>
				<time>2025-08-12T17:24:30.114Z</time>
			</trkpt>
			<trkpt lat="51.63569" lon="6.64896">
				<ele>24.87</ele>
				<time>2025-08-12T17:24:33.003Z</time>
			</trkpt>
			<trkpt lat="51.63585" lon="6.64793">
				<ele>26.23</ele>
				<time>2025-08-12T17:24:37.799Z</time>
			</trkpt>
			<trkpt lat="51.63589" lon="6.64746">
				<ele>26.63</ele>
				<time>2025-08-12T17:24:39.983Z</time>
			</trkpt>
			<trkpt lat="51.63587" lon="6.64721">
				<ele>26.52</ele>
				<time>2025-08-12T17:24:41.153Z</time>
			</trkpt>
			<trkpt lat="51.6358" lon="6.64686">
				<ele>27.27</ele>
				<time>2025-08-12T17:24:42.874Z</time>
			</trkpt>
			<trkpt lat="51.63572" lon="6.64671">
				<ele>27.82</ele>
				<time>2025-08-12T17:24:43.806Z</time>
			</trkpt>
			<trkpt lat="51.63547" lon="6.64631">
				<ele>27</ele>
				<time>2025-08-12T17:24:46.508Z</time>
			</trkpt>
			<trkpt lat="51.63569" lon="6.64587">
				<ele>27.53</ele>
				<time>2025-08-12T17:24:49.239Z</time>
			</trkpt>
			<trkpt lat="51.63594" lon="6.64542">
				<ele>28.61</ele>
				<time>2025-08-12T17:24:52.211Z</time>
			</trkpt>
			<trkpt lat="51.63721" lon="6.64328">
				<ele>26.99</ele>
				<time>2025-08-12T17:25:07.528Z</time>
			</trkpt>
			<trkpt lat="51.63796" lon="6.64212">
				<ele>24</ele>
				<time>2025-08-12T17:25:16.697Z</time>
			</trkpt>
			<trkpt lat="51.63887" lon="6.64075">
				<ele>28.94</ele>
				<time>2025-08-12T17:25:28.103Z</time>
			</trkpt>
			<trkpt lat="51.6392" lon="6.64019">
				<ele>31.38</ele>
				<time>2025-08-12T17:25:32.603Z</time>
			</trkpt>
			<trkpt lat="51.63939" lon="6.63982">
				<ele>33.01</ele>
				<time>2025-08-12T17:25:35.431Z</time>
			</trkpt>
			<trkpt lat="51.64021" lon="6.63801">
				<ele>28.23</ele>
				<time>2025-08-12T17:25:48.898Z</time>
			</trkpt>
			<trkpt lat="51.64064" lon="6.63714">
				<ele>26.21</ele>
				<time>2025-08-12T17:25:55.730Z</time>
			</trkpt>
			<trkpt lat="51.64093" lon="6.63661">
				<ele>24.95</ele>
				<time>2025-08-12T17:26:00.116Z</time>
			</trkpt>
			<trkpt lat="51.64142" lon="6.636">
				<ele>25.39</ele>
				<time>2025-08-12T17:26:06.364Z</time>
			</trkpt>
			<trkpt lat="51.64167" lon="6.6357">
				<ele>25.95</ele>
				<time>2025-08-12T17:26:09.531Z</time>
			</trkpt>
			<trkpt lat="51.64193" lon="6.63545">
				<ele>25.01</ele>
				<time>2025-08-12T17:26:12.621Z</time>
			</trkpt>
			<trkpt lat="51.6424" lon="6.63502">
				<ele>23.35</ele>
				<time>2025-08-12T17:26:18.166Z</time>
			</trkpt>
			<trkpt lat="51.64356" lon="6.63405">
				<ele>25.06</ele>
				<time>2025-08-12T17:26:31.707Z</time>
			</trkpt>
			<trkpt lat="51.64391" lon="6.63374">
				<ele>22.67</ele>
				<time>2025-08-12T17:26:35.875Z</time>
			</trkpt>
			<trkpt lat="51.64446" lon="6.63328">
				<ele>17.26</ele>
				<time>2025-08-12T17:26:42.363Z</time>
			</trkpt>
			<trkpt lat="51.64494" lon="6.63291">
				<ele>21.36</ele>
				<time>2025-08-12T17:26:47.950Z</time>
			</trkpt>
			<trkpt lat="51.64508" lon="6.63283">
				<ele>22.6</ele>
				<time>2025-08-12T17:26:49.511Z</time>
			</trkpt>
			<trkpt lat="51.6456" lon="6.63267">
				<ele>23.07</ele>
				<time>2025-08-12T17:26:55.081Z</time>
			</trkpt>
			<trkpt lat="51.64588" lon="6.63252">
				<ele>21.32</ele>
				<time>2025-08-12T17:26:58.188Z</time>
			</trkpt>
			<trkpt lat="51.64607" lon="6.63237">
				<ele>21.79</ele>
				<time>2025-08-12T17:27:00.416Z</time>
			</trkpt>
			<trkpt lat="51.64689" lon="6.63158">
				<ele>20.43</ele>
				<time>2025-08-12T17:27:10.474Z</time>
			</trkpt>
			<trkpt lat="51.64847" lon="6.63">
				<ele>26.47</ele>
				<time>2025-08-12T17:27:29.957Z</time>
			</trkpt>
			<trkpt lat="51.64868" lon="6.62976">
				<ele>25.45</ele>
				<time>2025-08-12T17:27:32.636Z</time>
			</trkpt>
			<trkpt lat="51.64882" lon="6.62955">
				<ele>24.92</ele>
				<time>2025-08-12T17:27:34.624Z</time>
			</trkpt>
			<trkpt lat="51.64902" lon="6.62914">
				<ele>26.07</ele>
				<time>2025-08-12T17:27:37.978Z</time>
			</trkpt>
			<trkpt lat="51.64908" lon="6.62897">
				<ele>26.7</ele>
				<time>2025-08-12T17:27:39.233Z</time>
			</trkpt>
			<trkpt lat="51.6492" lon="6.62845">
				<ele>26.85</ele>
				<time>2025-08-12T17:27:42.785Z</time>
			</trkpt>
			<trkpt lat="51.6493" lon="6.62774">
				<ele>26.96</ele>
				<time>2025-08-12T17:27:47.425Z</time>
			</trkpt>
			<trkpt lat="51.6494" lon="6.62658">
				<ele>26.17</ele>
				<time>2025-08-12T17:27:54.833Z</time>
			</trkpt>
			<trkpt lat="51.64947" lon="6.6253">
				<ele>24.95</ele>
				<time>2025-08-12T17:28:02.870Z</time>
			</trkpt>
			<trkpt lat="51.64954" lon="6.62377">
				<ele>27.94</ele>
				<time>2025-08-12T17:28:12.320Z</time>
			</trkpt>
			<trkpt lat="51.64989" lon="6.61633">
				<ele>27.37</ele>
				<time>2025-08-12T17:28:55.245Z</time>
			</trkpt>
			<trkpt lat="51.64996" lon="6.61549">
				<ele>26.11</ele>
				<time>2025-08-12T17:28:59.723Z</time>
			</trkpt>
			<trkpt lat="51.65" lon="6.61533">
				<ele>25.99</ele>
				<time>2025-08-12T17:29:00.622Z</time>
			</trkpt>
			<trkpt lat="51.64939" lon="6.61487">
				<ele>27.73</ele>
				<time>2025-08-12T17:29:06.241Z</time>
			</trkpt>
			<trkpt lat="51.64924" lon="6.61479">
				<ele>27.98</ele>
				<time>2025-08-12T17:29:07.555Z</time>
			</trkpt>
			<trkpt lat="51.64902" lon="6.61449">
				<ele>28.12</ele>
				<time>2025-08-12T17:29:09.946Z</time>
			</trkpt>
			<trkpt lat="51.64869" lon="6.61392">
				<ele>27.2</ele>
				<time>2025-08-12T17:29:13.947Z</time>
			</trkpt>
			<trkpt lat="51.64645" lon="6.61085">
				<ele>24.65</ele>
				<time>2025-08-12T17:29:37.895Z</time>
			</trkpt>
			<trkpt lat="51.64612" lon="6.61026">
				<ele>29.9</ele>
				<time>2025-08-12T17:29:41.843Z</time>
			</trkpt>
			<trkpt lat="51.64606" lon="6.61008">
				<ele>29.81</ele>
				<time>2025-08-12T17:29:42.856Z</time>
			</trkpt>
			<trkpt lat="51.64599" lon="6.60972">
				<ele>29.99</ele>
				<time>2025-08-12T17:29:44.721Z</time>
			</trkpt>
			<trkpt lat="51.64591" lon="6.60885">
				<ele>28.86</ele>
				<time>2025-08-12T17:29:49.053Z</time>
			</trkpt>
			<trkpt lat="51.64582" lon="6.60828">
				<ele>26.67</ele>
				<time>2025-08-12T17:29:51.935Z</time>
			</trkpt>
			<trkpt lat="51.64578" lon="6.60785">
				<ele>22.3</ele>
				<time>2025-08-12T17:29:54.059Z</time>
			</trkpt>
			<trkpt lat="51.64466" lon="6.59564">
				<ele>20.28</ele>
				<time>2025-08-12T17:30:51.445Z</time>
			</trkpt>
			<trkpt lat="51.64454" lon="6.59481">
				<ele>19.95</ele>
				<time>2025-08-12T17:30:55.181Z</time>
			</trkpt>
			<trkpt lat="51.64445" lon="6.5943">
				<ele>18.57</ele>
				<time>2025-08-12T17:30:57.490Z</time>
			</trkpt>
			<trkpt lat="51.64431" lon="6.59373">
				<ele>18.3</ele>
				<time>2025-08-12T17:31:00.144Z</time>
			</trkpt>
			<trkpt lat="51.64414" lon="6.59314">
				<ele>17.96</ele>
				<time>2025-08-12T17:31:02.942Z</time>
			</trkpt>
			<trkpt lat="51.64389" lon="6.5925">
				<ele>18.91</ele>
				<time>2025-08-12T17:31:06.170Z</time>
			</trkpt>
			<trkpt lat="51.64366" lon="6.59201">
				<ele>20.14</ele>
				<time>2025-08-12T17:31:08.774Z</time>
			</trkpt>
			<trkpt lat="51.64341" lon="6.59158">
				<ele>19</ele>
				<time>2025-08-12T17:31:11.254Z</time>
			</trkpt>
			<trkpt lat="51.64309" lon="6.59109">
				<ele>18.09</ele>
				<time>2025-08-12T17:31:14.228Z</time>
			</trkpt>
			<trkpt lat="51.64275" lon="6.59067">
				<ele>20.03</ele>
				<time>2025-08-12T17:31:17.090Z</time>
			</trkpt>
			<trkpt lat="51.64242" lon="6.59032">
				<ele>20.71</ele>
				<time>2025-08-12T17:31:19.710Z</time>
			</trkpt>
			<trkpt lat="51.64196" lon="6.58994">
				<ele>20.71</ele>
				<time>2025-08-12T17:31:23.108Z</time>
			</trkpt>
			<trkpt lat="51.64101" lon="6.58926">
				<ele>21.2</ele>
				<time>2025-08-12T17:31:29.839Z</time>
			</trkpt>
			<trkpt lat="51.64074" lon="6.58902">
				<ele>20</ele>
				<time>2025-08-12T17:31:31.808Z</time>
			</trkpt>
			<trkpt lat="51.64041" lon="6.58864">
				<ele>18.59</ele>
				<time>2025-08-12T17:31:34.380Z</time>
			</trkpt>
			<trkpt lat="51.64024" lon="6.58841">
				<ele>18.11</ele>
				<time>2025-08-12T17:31:35.779Z</time>
			</trkpt>
			<trkpt lat="51.64008" lon="6.58817">
				<ele>19.07</ele>
				<time>2025-08-12T17:31:37.149Z</time>
			</trkpt>
			<trkpt lat="51.63989" lon="6.58783">
				<ele>20</ele>
				<time>2025-08-12T17:31:38.920Z</time>
			</trkpt>
			<trkpt lat="51.63976" lon="6.58754">
				<ele>20.82</ele>
				<time>2025-08-12T17:31:40.295Z</time>
			</trkpt>
			<trkpt lat="51.63946" lon="6.58682">
				<ele>21.92</ele>
				<time>2025-08-12T17:31:43.556Z</time>
			</trkpt>
			<trkpt lat="51.63937" lon="6.58653">
				<ele>21.73</ele>
				<time>2025-08-12T17:31:44.749Z</time>
			</trkpt>
			<trkpt lat="51.63924" lon="6.58605">
				<ele>21.08</ele>
				<time>2025-08-12T17:31:46.650Z</time>
			</trkpt>
			<trkpt lat="51.63913" lon="6.58556">
				<ele>19.89</ele>
				<time>2025-08-12T17:31:48.510Z</time>
			</trkpt>
			<trkpt lat="51.63905" lon="6.58507">
				<ele>20.59</ele>
				<time>2025-08-12T17:31:50.290Z</time>
			</trkpt>
			<trkpt lat="51.63893" lon="6.58412">
				<ele>18.14</ele>
				<time>2025-08-12T17:31:53.626Z</time>
			</trkpt>
			<trkpt lat="51.63885" lon="6.58327">
				<ele>19.98</ele>
				<time>2025-08-12T17:31:56.517Z</time>
			</trkpt>
			<trkpt lat="51.63882" lon="6.58255">
				<ele>20.73</ele>
				<time>2025-08-12T17:31:58.903Z</time>
			</trkpt>
			<trkpt lat="51.63881" lon="6.58162">
				<ele>19.95</ele>
				<time>2025-08-12T17:32:01.934Z</time>
			</trkpt>
			<trkpt lat="51.63882" lon="6.57889">
				<ele>19</ele>
				<time>2025-08-12T17:32:10.652Z</time>
			</trkpt>
			<trkpt lat="51.63877" lon="6.57779">
				<ele>20</ele>
				<time>2025-08-12T17:32:14.153Z</time>
			</trkpt>
			<trkpt lat="51.63868" lon="6.57673">
				<ele>21</ele>
				<time>2025-08-12T17:32:17.566Z</time>
			</trkpt>
			<trkpt lat="51.63856" lon="6.57575">
				<ele>19.15</ele>
				<time>2025-08-12T17:32:20.786Z</time>
			</trkpt>
			<trkpt lat="51.63836" lon="6.57456">
				<ele>20.87</ele>
				<time>2025-08-12T17:32:24.828Z</time>
			</trkpt>
			<trkpt lat="51.6382" lon="6.57378">
				<ele>19.72</ele>
				<time>2025-08-12T17:32:27.577Z</time>
			</trkpt>
			<trkpt lat="51.63798" lon="6.57284">
				<ele>20</ele>
				<time>2025-08-12T17:32:31.013Z</time>
			</trkpt>
			<trkpt lat="51.63772" lon="6.57183">
				<ele>18.79</ele>
				<time>2025-08-12T17:32:34.864Z</time>
			</trkpt>
			<trkpt lat="51.6372" lon="6.57002">
				<ele>19.9</ele>
				<time>2025-08-12T17:32:42.254Z</time>
			</trkpt>
			<trkpt lat="51.63733" lon="6.56983">
				<ele>19.77</ele>
				<time>2025-08-12T17:32:43.345Z</time>
			</trkpt>
			<trkpt lat="51.63745" lon="6.56949">
				<ele>19.3</ele>
				<time>2025-08-12T17:32:44.861Z</time>
			</trkpt>
			<trkpt lat="51.63749" lon="6.56925">
				<ele>18.36</ele>
				<time>2025-08-12T17:32:45.828Z</time>
			</trkpt>
			<trkpt lat="51.63793" lon="6.56285">
				<ele>19.86</ele>
				<time>2025-08-12T17:33:11.756Z</time>
			</trkpt>
			<trkpt lat="51.63798" lon="6.56176">
				<ele>21.72</ele>
				<time>2025-08-12T17:33:16.319Z</time>
			</trkpt>
			<trkpt lat="51.63813" lon="6.55456">
				<ele>19.69</ele>
				<time>2025-08-12T17:33:47.467Z</time>
			</trkpt>
			<trkpt lat="51.63819" lon="6.54837">
				<ele>18.51</ele>
				<time>2025-08-12T17:34:15.595Z</time>
			</trkpt>
			<trkpt lat="51.63825" lon="6.54692">
				<ele>21.7</ele>
				<time>2025-08-12T17:34:22.361Z</time>
			</trkpt>
			<trkpt lat="51.63832" lon="6.5458">
				<ele>21.83</ele>
				<time>2025-08-12T17:34:27.643Z</time>
			</trkpt>
			<trkpt lat="51.63907" lon="6.53742">
				<ele>22.47</ele>
				<time>2025-08-12T17:35:08.392Z</time>
			</trkpt>
			<trkpt lat="51.63912" lon="6.53657">
				<ele>19.95</ele>
				<time>2025-08-12T17:35:12.592Z</time>
			</trkpt>
			<trkpt lat="51.63914" lon="6.53563">
				<ele>19.84</ele>
				<time>2025-08-12T17:35:17.236Z</time>
			</trkpt>
			<trkpt lat="51.63913" lon="6.53502">
				<ele>19.75</ele>
				<time>2025-08-12T17:35:20.259Z</time>
			</trkpt>
			<trkpt lat="51.6391" lon="6.53423">
				<ele>18.77</ele>
				<time>2025-08-12T17:35:24.190Z</time>
			</trkpt>
			<trkpt lat="51.63895" lon="6.53176">
				<ele>17.76</ele>
				<time>2025-08-12T17:35:36.594Z</time>
			</trkpt>
			<trkpt lat="51.63859" lon="6.52623">
				<ele>18</ele>
				<time>2025-08-12T17:36:04.761Z</time>
			</trkpt>
			<trkpt lat="51.63853" lon="6.52557">
				<ele>19.93</ele>
				<time>2025-08-12T17:36:08.171Z</time>
			</trkpt>
			<trkpt lat="51.63844" lon="6.52488">
				<ele>20.61</ele>
				<time>2025-08-12T17:36:11.781Z</time>
			</trkpt>
			<trkpt lat="51.63824" lon="6.52383">
				<ele>19.8</ele>
				<time>2025-08-12T17:36:17.419Z</time>
			</trkpt>
			<trkpt lat="51.63811" lon="6.52332">
				<ele>19</ele>
				<time>2025-08-12T17:36:20.254Z</time>
			</trkpt>
			<trkpt lat="51.63781" lon="6.52229">
				<ele>18.14</ele>
				<time>2025-08-12T17:36:26.117Z</time>
			</trkpt>
			<trkpt lat="51.63754" lon="6.52155">
				<ele>18.33</ele>
				<time>2025-08-12T17:36:30.550Z</time>
			</trkpt>
			<trkpt lat="51.63581" lon="6.51713">
				<ele>18.27</ele>
				<time>2025-08-12T17:36:57.686Z</time>
			</trkpt>
			<trkpt lat="51.63561" lon="6.51665">
				<ele>19.84</ele>
				<time>2025-08-12T17:37:00.702Z</time>
			</trkpt>
			<trkpt lat="51.63515" lon="6.51571">
				<ele>18.14</ele>
				<time>2025-08-12T17:37:06.953Z</time>
			</trkpt>
			<trkpt lat="51.63474" lon="6.51501">
				<ele>17.95</ele>
				<time>2025-08-12T17:37:11.985Z</time>
			</trkpt>
			<trkpt lat="51.6313" lon="6.5098">
				<ele>19.78</ele>
				<time>2025-08-12T17:37:51.884Z</time>
			</trkpt>
			<trkpt lat="51.63072" lon="6.5088">
				<ele>19.27</ele>
				<time>2025-08-12T17:37:59.073Z</time>
			</trkpt>
			<trkpt lat="51.63043" lon="6.50825">
				<ele>19.43</ele>
				<time>2025-08-12T17:38:02.863Z</time>
			</trkpt>
			<trkpt lat="51.62981" lon="6.50693">
				<ele>21</ele>
				<time>2025-08-12T17:38:11.554Z</time>
			</trkpt>
			<trkpt lat="51.62929" lon="6.50562">
				<ele>20</ele>
				<time>2025-08-12T17:38:19.713Z</time>
			</trkpt>
			<trkpt lat="51.629" lon="6.50481">
				<ele>20.27</ele>
				<time>2025-08-12T17:38:24.616Z</time>
			</trkpt>
			<trkpt lat="51.62878" lon="6.50412">
				<ele>20.63</ele>
				<time>2025-08-12T17:38:28.680Z</time>
			</trkpt>
			<trkpt lat="51.62851" lon="6.5032">
				<ele>21.29</ele>
				<time>2025-08-12T17:38:34.009Z</time>
			</trkpt>
			<trkpt lat="51.62822" lon="6.50204">
				<ele>21.52</ele>
				<time>2025-08-12T17:38:40.549Z</time>
			</trkpt>
			<trkpt lat="51.62741" lon="6.49867">
				<ele>19.91</ele>
				<time>2025-08-12T17:38:59.394Z</time>
			</trkpt>
			<trkpt lat="51.62705" lon="6.49741">
				<ele>20.6</ele>
				<time>2025-08-12T17:39:06.600Z</time>
			</trkpt>
			<trkpt lat="51.62667" lon="6.49618">
				<ele>20.03</ele>
				<time>2025-08-12T17:39:13.720Z</time>
			</trkpt>
			<trkpt lat="51.62609" lon="6.49449">
				<ele>21</ele>
				<time>2025-08-12T17:39:23.696Z</time>
			</trkpt>
			<trkpt lat="51.62582" lon="6.49379">
				<ele>22.35</ele>
				<time>2025-08-12T17:39:27.940Z</time>
			</trkpt>
			<trkpt lat="51.62575" lon="6.49353">
				<ele>23.2</ele>
				<time>2025-08-12T17:39:29.398Z</time>
			</trkpt>
			<trkpt lat="51.62603" lon="6.49317">
				<ele>22.69</ele>
				<time>2025-08-12T17:39:32.362Z</time>
			</trkpt>
			<trkpt lat="51.62651" lon="6.49263">
				<ele>22.22</ele>
				<time>2025-08-12T17:39:37.185Z</time>
			</trkpt>
			<trkpt lat="51.62747" lon="6.49144">
				<ele>22.24</ele>
				<time>2025-08-12T17:39:47.098Z</time>
			</trkpt>
			<trkpt lat="51.62844" lon="6.49002">
				<ele>20.39</ele>
				<time>2025-08-12T17:39:57.767Z</time>
			</trkpt>
			<trkpt lat="51.631" lon="6.48647">
				<ele>24.06</ele>
				<time>2025-08-12T17:40:25.362Z</time>
			</trkpt>
			<trkpt lat="51.63117" lon="6.4862">
				<ele>24.16</ele>
				<time>2025-08-12T17:40:27.335Z</time>
			</trkpt>
			<trkpt lat="51.63144" lon="6.48576">
				<ele>23.83</ele>
				<time>2025-08-12T17:40:30.519Z</time>
			</trkpt>
			<trkpt lat="51.63176" lon="6.48509">
				<ele>21.31</ele>
				<time>2025-08-12T17:40:34.892Z</time>
			</trkpt>
			<trkpt lat="51.63222" lon="6.48404">
				<ele>21.37</ele>
				<time>2025-08-12T17:40:41.597Z</time>
			</trkpt>
			<trkpt lat="51.63383" lon="6.48058">
				<ele>20.92</ele>
				<time>2025-08-12T17:41:04.809Z</time>
			</trkpt>
			<trkpt lat="51.63415" lon="6.47991">
				<ele>25.58</ele>
				<time>2025-08-12T17:41:09.491Z</time>
			</trkpt>
			<trkpt lat="51.63444" lon="6.47943">
				<ele>25.94</ele>
				<time>2025-08-12T17:41:13.241Z</time>
			</trkpt>
			<trkpt lat="51.63495" lon="6.47881">
				<ele>21.81</ele>
				<time>2025-08-12T17:41:19.075Z</time>
			</trkpt>
			<trkpt lat="51.63532" lon="6.47848">
				<ele>24.94</ele>
				<time>2025-08-12T17:41:22.987Z</time>
			</trkpt>
			<trkpt lat="51.63578" lon="6.47816">
				<ele>32.26</ele>
				<time>2025-08-12T17:41:27.678Z</time>
			</trkpt>
			<trkpt lat="51.63613" lon="6.47801">
				<ele>32.57</ele>
				<time>2025-08-12T17:41:31.108Z</time>
			</trkpt>
			<trkpt lat="51.63659" lon="6.47792">
				<ele>35.05</ele>
				<time>2025-08-12T17:41:35.545Z</time>
			</trkpt>
			<trkpt lat="51.63706" lon="6.47793">
				<ele>34.35</ele>
				<time>2025-08-12T17:41:40.105Z</time>
			</trkpt>
			<trkpt lat="51.63733" lon="6.47795">
				<ele>33.07</ele>
				<time>2025-08-12T17:41:42.756Z</time>
			</trkpt>
			<trkpt lat="51.63732" lon="6.47774">
				<ele>35.18</ele>
				<time>2025-08-12T17:41:44.045Z</time>
			</trkpt>
			<trkpt lat="51.63716" lon="6.47726">
				<ele>38.84</ele>
				<time>2025-08-12T17:41:47.489Z</time>
			</trkpt>
			<trkpt lat="51.63699" lon="6.4766">
				<ele>37.98</ele>
				<time>2025-08-12T17:41:52.275Z</time>
			</trkpt>
			<trkpt lat="51.6369" lon="6.47639">
				<ele>37.65</ele>
				<time>2025-08-12T17:41:54.050Z</time>
			</trkpt>
			<trkpt lat="51.63659" lon="6.47586">
				<ele>39.53</ele>
				<time>2025-08-12T17:41:59.276Z</time>
			</trkpt>
			<trkpt lat="51.63649" lon="6.47541">
				<ele>36.97</ele>
				<time>2025-08-12T17:42:02.815Z</time>
			</trkpt>
			<trkpt lat="51.63647" lon="6.47523">
				<ele>35.84</ele>
				<time>2025-08-12T17:42:04.188Z</time>
			</trkpt>
			<trkpt lat="51.63648" lon="6.47496">
				<ele>34.85</ele>
				<time>2025-08-12T17:42:06.235Z</time>
			</trkpt>
			<trkpt lat="51.6367" lon="6.47382">
				<ele>33.16</ele>
				<time>2025-08-12T17:42:15.437Z</time>
			</trkpt>
			<trkpt lat="51.63675" lon="6.47339">
				<ele>33.9</ele>
				<time>2025-08-12T17:42:18.845Z</time>
			</trkpt>
			<trkpt lat="51.63678" lon="6.47296">
				<ele>34.82</ele>
				<time>2025-08-12T17:42:22.216Z</time>
			</trkpt>
			<trkpt lat="51.63678" lon="6.47231">
				<ele>32.21</ele>
				<time>2025-08-12T17:42:27.255Z</time>
			</trkpt>
			<trkpt lat="51.63669" lon="6.47023">
				<ele>28</ele>
				<time>2025-08-12T17:42:42.792Z</time>
			</trkpt>
			<trkpt lat="51.63657" lon="6.46988">
				<ele>28.7</ele>
				<time>2025-08-12T17:42:45.589Z</time>
			</trkpt>
			<trkpt lat="51.63635" lon="6.46945">
				<ele>31.08</ele>
				<time>2025-08-12T17:42:49.349Z</time>
			</trkpt>
			<trkpt lat="51.63627" lon="6.46913">
				<ele>32.47</ele>
				<time>2025-08-12T17:42:51.587Z</time>
			</trkpt>
			<trkpt lat="51.63627" lon="6.46897">
				<ele>32.81</ele>
				<time>2025-08-12T17:42:52.599Z</time>
			</trkpt>
			<trkpt lat="51.63629" lon="6.4688">
				<ele>33.31</ele>
				<time>2025-08-12T17:42:53.676Z</time>
			</trkpt>
			<trkpt lat="51.63637" lon="6.46863">
				<ele>33.9</ele>
				<time>2025-08-12T17:42:54.974Z</time>
			</trkpt>
			<trkpt lat="51.63703" lon="6.46759">
				<ele>33.95</ele>
				<time>2025-08-12T17:43:03.052Z</time>
			</trkpt>
			<trkpt lat="51.63709" lon="6.46749">
				<ele>34</ele>
				<time>2025-08-12T17:43:03.710Z</time>
			</trkpt>
			<trkpt lat="51.63725" lon="6.46713">
				<ele>33.54</ele>
				<time>2025-08-12T17:43:05.716Z</time>
			</trkpt>
			<trkpt lat="51.63771" lon="6.46404">
				<ele>37.66</ele>
				<time>2025-08-12T17:43:17.938Z</time>
			</trkpt>
			<trkpt lat="51.63781" lon="6.46367">
				<ele>38.76</ele>
				<time>2025-08-12T17:43:19.296Z</time>
			</trkpt>
			<trkpt lat="51.63823" lon="6.46305">
				<ele>39.36</ele>
				<time>2025-08-12T17:43:22.295Z</time>
			</trkpt>
			<trkpt lat="51.63838" lon="6.46273">
				<ele>38.84</ele>
				<time>2025-08-12T17:43:23.579Z</time>
			</trkpt>
			<trkpt lat="51.63854" lon="6.46222">
				<ele>39</ele>
				<time>2025-08-12T17:43:25.394Z</time>
			</trkpt>
			<trkpt lat="51.6386" lon="6.46169">
				<ele>40.01</ele>
				<time>2025-08-12T17:43:27.103Z</time>
			</trkpt>
			<trkpt lat="51.63861" lon="6.46124">
				<ele>40</ele>
				<time>2025-08-12T17:43:28.539Z</time>
			</trkpt>
			<trkpt lat="51.6386" lon="6.46115">
				<ele>40.02</ele>
				<time>2025-08-12T17:43:28.832Z</time>
			</trkpt>
			<trkpt lat="51.63847" lon="6.4612">
				<ele>40.99</ele>
				<time>2025-08-12T17:43:29.525Z</time>
			</trkpt>
			<trkpt lat="51.63807" lon="6.46118">
				<ele>44.53</ele>
				<time>2025-08-12T17:43:31.582Z</time>
			</trkpt>
			<trkpt lat="51.63761" lon="6.46102">
				<ele>49.55</ele>
				<time>2025-08-12T17:43:33.946Z</time>
			</trkpt>
			<trkpt lat="51.63725" lon="6.46078">
				<ele>55.02</ele>
				<time>2025-08-12T17:43:35.861Z</time>
			</trkpt>
			<trkpt lat="51.63624" lon="6.45978">
				<ele>66.1</ele>
				<time>2025-08-12T17:43:41.489Z</time>
			</trkpt>
			<trkpt lat="51.63509" lon="6.45877">
				<ele>68.56</ele>
				<time>2025-08-12T17:43:47.431Z</time>
			</trkpt>
			<trkpt lat="51.63487" lon="6.4585">
				<ele>68.35</ele>
				<time>2025-08-12T17:43:48.659Z</time>
			</trkpt>
			<trkpt lat="51.63459" lon="6.45809">
				<ele>66.82</ele>
				<time>2025-08-12T17:43:50.328Z</time>
			</trkpt>
			<trkpt lat="51.63433" lon="6.45752">
				<ele>64.16</ele>
				<time>2025-08-12T17:43:52.251Z</time>
			</trkpt>
			<trkpt lat="51.63369" lon="6.45581">
				<ele>56.23</ele>
				<time>2025-08-12T17:43:57.638Z</time>
			</trkpt>
			<trkpt lat="51.63347" lon="6.45529">
				<ele>54.02</ele>
				<time>2025-08-12T17:43:59.334Z</time>
			</trkpt>
			<trkpt lat="51.63317" lon="6.45474">
				<ele>50.86</ele>
				<time>2025-08-12T17:44:01.312Z</time>
			</trkpt>
			<trkpt lat="51.63279" lon="6.45428">
				<ele>49.7</ele>
				<time>2025-08-12T17:44:03.392Z</time>
			</trkpt>
			<trkpt lat="51.63256" lon="6.45405">
				<ele>48.6</ele>
				<time>2025-08-12T17:44:04.584Z</time>
			</trkpt>
			<trkpt lat="51.6323" lon="6.45381">
				<ele>47.14</ele>
				<time>2025-08-12T17:44:05.910Z</time>
			</trkpt>
			<trkpt lat="51.63159" lon="6.45332">
				<ele>44.02</ele>
				<time>2025-08-12T17:44:09.373Z</time>
			</trkpt>
			<trkpt lat="51.63094" lon="6.45281">
				<ele>36.96</ele>
				<time>2025-08-12T17:44:12.689Z</time>
			</trkpt>
			<trkpt lat="51.63053" lon="6.45242">
				<ele>31.77</ele>
				<time>2025-08-12T17:44:14.920Z</time>
			</trkpt>
			<trkpt lat="51.62974" lon="6.45155">
				<ele>26.09</ele>
				<time>2025-08-12T17:44:19.545Z</time>
			</trkpt>
			<trkpt lat="51.6297" lon="6.45151">
				<ele>25.88</ele>
				<time>2025-08-12T17:44:19.778Z</time>
			</trkpt>
			<trkpt lat="51.62949" lon="6.45129">
				<ele>24.33</ele>
				<time>2025-08-12T17:44:21.027Z</time>
			</trkpt>
			<trkpt lat="51.62955" lon="6.4511">
				<ele>24.74</ele>
				<time>2025-08-12T17:44:21.693Z</time>
			</trkpt>
			<trkpt lat="51.6296" lon="6.45054">
				<ele>23.91</ele>
				<time>2025-08-12T17:44:23.479Z</time>
			</trkpt>
			<trkpt lat="51.62935" lon="6.44822">
				<ele>22.67</ele>
				<time>2025-08-12T17:44:31.145Z</time>
			</trkpt>
			<trkpt lat="51.62917" lon="6.44582">
				<ele>27</ele>
				<time>2025-08-12T17:44:39.365Z</time>
			</trkpt>
			<trkpt lat="51.62903" lon="6.44449">
				<ele>21.7</ele>
				<time>2025-08-12T17:44:44.085Z</time>
			</trkpt>
			<trkpt lat="51.62887" lon="6.44339">
				<ele>23</ele>
				<time>2025-08-12T17:44:48.101Z</time>
			</trkpt>
			<trkpt lat="51.62885" lon="6.44328">
				<ele>23.15</ele>
				<time>2025-08-12T17:44:48.512Z</time>
			</trkpt>
			<trkpt lat="51.62872" lon="6.44249">
				<ele>23.42</ele>
				<time>2025-08-12T17:44:51.454Z</time>
			</trkpt>
			<trkpt lat="51.62783" lon="6.4381">
				<ele>21.04</ele>
				<time>2025-08-12T17:45:08.470Z</time>
			</trkpt>
			<trkpt lat="51.62728" lon="6.43587">
				<ele>22.84</ele>
				<time>2025-08-12T17:45:17.486Z</time>
			</trkpt>
			<trkpt lat="51.62636" lon="6.43242">
				<ele>23.9</ele>
				<time>2025-08-12T17:45:31.660Z</time>
			</trkpt>
			<trkpt lat="51.62609" lon="6.4313">
				<ele>24</ele>
				<time>2025-08-12T17:45:36.183Z</time>
			</trkpt>
			<trkpt lat="51.62568" lon="6.42917">
				<ele>24.5</ele>
				<time>2025-08-12T17:45:44.523Z</time>
			</trkpt>
			<trkpt lat="51.6236" lon="6.41991">
				<ele>24</ele>
				<time>2025-08-12T17:46:19.416Z</time>
			</trkpt>
			<trkpt lat="51.62341" lon="6.41914">
				<ele>24.68</ele>
				<time>2025-08-12T17:46:22.129Z</time>
			</trkpt>
			<trkpt lat="51.62324" lon="6.41849">
				<ele>26.45</ele>
				<time>2025-08-12T17:46:24.403Z</time>
			</trkpt>
			<trkpt lat="51.62338" lon="6.41837">
				<ele>25.97</ele>
				<time>2025-08-12T17:46:25.218Z</time>
			</trkpt>
			<trkpt lat="51.62374" lon="6.41798">
				<ele>27.63</ele>
				<time>2025-08-12T17:46:27.428Z</time>
			</trkpt>
			<trkpt lat="51.62446" lon="6.417">
				<ele>32.86</ele>
				<time>2025-08-12T17:46:32.137Z</time>
			</trkpt>
			<trkpt lat="51.62484" lon="6.41657">
				<ele>37.84</ele>
				<time>2025-08-12T17:46:34.413Z</time>
			</trkpt>
			<trkpt lat="51.62523" lon="6.4162">
				<ele>40.58</ele>
				<time>2025-08-12T17:46:36.605Z</time>
			</trkpt>
			<trkpt lat="51.62568" lon="6.41589">
				<ele>36.83</ele>
				<time>2025-08-12T17:46:38.948Z</time>
			</trkpt>
			<trkpt lat="51.62616" lon="6.41565">
				<ele>31.33</ele>
				<time>2025-08-12T17:46:41.325Z</time>
			</trkpt>
			<trkpt lat="51.62682" lon="6.41545">
				<ele>27.8</ele>
				<time>2025-08-12T17:46:44.460Z</time>
			</trkpt>
			<trkpt lat="51.62722" lon="6.41529">
				<ele>26.92</ele>
				<time>2025-08-12T17:46:46.362Z</time>
			</trkpt>
			<trkpt lat="51.62745" lon="6.41514">
				<ele>26.24</ele>
				<time>2025-08-12T17:46:47.499Z</time>
			</trkpt>
			<trkpt lat="51.62807" lon="6.41456">
				<ele>26.12</ele>
				<time>2025-08-12T17:46:50.756Z</time>
			</trkpt>
			<trkpt lat="51.62844" lon="6.41414">
				<ele>27.05</ele>
				<time>2025-08-12T17:46:52.790Z</time>
			</trkpt>
			<trkpt lat="51.6288" lon="6.41369">
				<ele>27.2</ele>
				<time>2025-08-12T17:46:54.823Z</time>
			</trkpt>
			<trkpt lat="51.62923" lon="6.41293">
				<ele>26.15</ele>
				<time>2025-08-12T17:46:57.648Z</time>
			</trkpt>
			<trkpt lat="51.62958" lon="6.41224">
				<ele>25.96</ele>
				<time>2025-08-12T17:47:00.076Z</time>
			</trkpt>
			<trkpt lat="51.62986" lon="6.41181">
				<ele>26.46</ele>
				<time>2025-08-12T17:47:01.764Z</time>
			</trkpt>
			<trkpt lat="51.63055" lon="6.41119">
				<ele>30.13</ele>
				<time>2025-08-12T17:47:05.192Z</time>
			</trkpt>
			<trkpt lat="51.63083" lon="6.41079">
				<ele>31.41</ele>
				<time>2025-08-12T17:47:06.808Z</time>
			</trkpt>
			<trkpt lat="51.63195" lon="6.40826">
				<ele>29.58</ele>
				<time>2025-08-12T17:47:15.082Z</time>
			</trkpt>
			<trkpt lat="51.63217" lon="6.40791">
				<ele>30.54</ele>
				<time>2025-08-12T17:47:16.404Z</time>
			</trkpt>
			<trkpt lat="51.6325" lon="6.40756">
				<ele>28.52</ele>
				<time>2025-08-12T17:47:18.093Z</time>
			</trkpt>
			<trkpt lat="51.63289" lon="6.40722">
				<ele>26.15</ele>
				<time>2025-08-12T17:47:19.989Z</time>
			</trkpt>
			<trkpt lat="51.63353" lon="6.40649">
				<ele>25.61</ele>
				<time>2025-08-12T17:47:23.349Z</time>
			</trkpt>
			<trkpt lat="51.63371" lon="6.40622">
				<ele>26.08</ele>
				<time>2025-08-12T17:47:24.405Z</time>
			</trkpt>
			<trkpt lat="51.63392" lon="6.40578">
				<ele>26.85</ele>
				<time>2025-08-12T17:47:25.886Z</time>
			</trkpt>
			<trkpt lat="51.63578" lon="6.40119">
				<ele>22.17</ele>
				<time>2025-08-12T17:47:40.786Z</time>
			</trkpt>
			<trkpt lat="51.636" lon="6.40051">
				<ele>23.53</ele>
				<time>2025-08-12T17:47:42.927Z</time>
			</trkpt>
			<trkpt lat="51.63618" lon="6.39981">
				<ele>25.05</ele>
				<time>2025-08-12T17:47:45.059Z</time>
			</trkpt>
			<trkpt lat="51.63632" lon="6.39912">
				<ele>27.61</ele>
				<time>2025-08-12T17:47:47.121Z</time>
			</trkpt>
			<trkpt lat="51.6367" lon="6.3969">
				<ele>26.71</ele>
				<time>2025-08-12T17:47:53.789Z</time>
			</trkpt>
			<trkpt lat="51.6369" lon="6.39612">
				<ele>25.29</ele>
				<time>2025-08-12T17:47:56.288Z</time>
			</trkpt>
			<trkpt lat="51.63714" lon="6.39538">
				<ele>23.57</ele>
				<time>2025-08-12T17:47:58.792Z</time>
			</trkpt>
			<trkpt lat="51.63738" lon="6.39477">
				<ele>23.33</ele>
				<time>2025-08-12T17:48:00.985Z</time>
			</trkpt>
			<trkpt lat="51.63765" lon="6.39422">
				<ele>23.6</ele>
				<time>2025-08-12T17:48:03.139Z</time>
			</trkpt>
			<trkpt lat="51.63801" lon="6.39358">
				<ele>23.57</ele>
				<time>2025-08-12T17:48:05.829Z</time>
			</trkpt>
			<trkpt lat="51.63846" lon="6.393">
				<ele>24.7</ele>
				<time>2025-08-12T17:48:08.766Z</time>
			</trkpt>
			<trkpt lat="51.63952" lon="6.39182">
				<ele>24.29</ele>
				<time>2025-08-12T17:48:15.520Z</time>
			</trkpt>
			<trkpt lat="51.63972" lon="6.39154">
				<ele>24.44</ele>
				<time>2025-08-12T17:48:16.943Z</time>
			</trkpt>
			<trkpt lat="51.63998" lon="6.39112">
				<ele>24.04</ele>
				<time>2025-08-12T17:48:18.945Z</time>
			</trkpt>
			<trkpt lat="51.64028" lon="6.39057">
				<ele>23</ele>
				<time>2025-08-12T17:48:21.458Z</time>
			</trkpt>
			<trkpt lat="51.64061" lon="6.38978">
				<ele>23.59</ele>
				<time>2025-08-12T17:48:24.793Z</time>
			</trkpt>
			<trkpt lat="51.64092" lon="6.38877">
				<ele>25.22</ele>
				<time>2025-08-12T17:48:28.828Z</time>
			</trkpt>
			<trkpt lat="51.64107" lon="6.38818">
				<ele>28.19</ele>
				<time>2025-08-12T17:48:31.153Z</time>
			</trkpt>
			<trkpt lat="51.64127" lon="6.38722">
				<ele>27</ele>
				<time>2025-08-12T17:48:34.903Z</time>
			</trkpt>
			<trkpt lat="51.64169" lon="6.38501">
				<ele>28.28</ele>
				<time>2025-08-12T17:48:43.705Z</time>
			</trkpt>
			<trkpt lat="51.64187" lon="6.38423">
				<ele>25.43</ele>
				<time>2025-08-12T17:48:46.948Z</time>
			</trkpt>
			<trkpt lat="51.64206" lon="6.38361">
				<ele>24</ele>
				<time>2025-08-12T17:48:49.669Z</time>
			</trkpt>
			<trkpt lat="51.64229" lon="6.383">
				<ele>25.45</ele>
				<time>2025-08-12T17:48:52.502Z</time>
			</trkpt>
			<trkpt lat="51.64254" lon="6.38247">
				<ele>27.82</ele>
				<time>2025-08-12T17:48:55.165Z</time>
			</trkpt>
			<trkpt lat="51.64291" lon="6.38184">
				<ele>27.03</ele>
				<time>2025-08-12T17:48:58.661Z</time>
			</trkpt>
			<trkpt lat="51.64345" lon="6.38109">
				<ele>28.06</ele>
				<time>2025-08-12T17:49:03.333Z</time>
			</trkpt>
			<trkpt lat="51.6436" lon="6.38085">
				<ele>28.93</ele>
				<time>2025-08-12T17:49:04.727Z</time>
			</trkpt>
			<trkpt lat="51.64373" lon="6.38074">
				<ele>29</ele>
				<time>2025-08-12T17:49:05.698Z</time>
			</trkpt>
			<trkpt lat="51.64397" lon="6.38045">
				<ele>29</ele>
				<time>2025-08-12T17:49:07.685Z</time>
			</trkpt>
			<trkpt lat="51.64441" lon="6.37992">
				<ele>29.67</ele>
				<time>2025-08-12T17:49:11.340Z</time>
			</trkpt>
			<trkpt lat="51.64628" lon="6.37802">
				<ele>27.61</ele>
				<time>2025-08-12T17:49:26.198Z</time>
			</trkpt>
			<trkpt lat="51.64914" lon="6.37536">
				<ele>27.69</ele>
				<time>2025-08-12T17:49:48.483Z</time>
			</trkpt>
			<trkpt lat="51.64979" lon="6.37508">
				<ele>25.91</ele>
				<time>2025-08-12T17:49:52.983Z</time>
			</trkpt>
			<trkpt lat="51.65015" lon="6.3749">
				<ele>25.43</ele>
				<time>2025-08-12T17:49:55.493Z</time>
			</trkpt>
			<trkpt lat="51.65048" lon="6.37467">
				<ele>24.26</ele>
				<time>2025-08-12T17:49:57.879Z</time>
			</trkpt>
			<trkpt lat="51.65077" lon="6.37442">
				<ele>24.72</ele>
				<time>2025-08-12T17:50:00.052Z</time>
			</trkpt>
			<trkpt lat="51.65125" lon="6.37393">
				<ele>26</ele>
				<time>2025-08-12T17:50:03.787Z</time>
			</trkpt>
			<trkpt lat="51.65149" lon="6.37358">
				<ele>26.6</ele>
				<time>2025-08-12T17:50:05.902Z</time>
			</trkpt>
			<trkpt lat="51.6526" lon="6.37185">
				<ele>24.22</ele>
				<time>2025-08-12T17:50:15.838Z</time>
			</trkpt>
			<trkpt lat="51.65292" lon="6.37145">
				<ele>25.02</ele>
				<time>2025-08-12T17:50:18.397Z</time>
			</trkpt>
			<trkpt lat="51.65385" lon="6.37057">
				<ele>28.06</ele>
				<time>2025-08-12T17:50:25.100Z</time>
			</trkpt>
			<trkpt lat="51.65416" lon="6.37033">
				<ele>26.79</ele>
				<time>2025-08-12T17:50:27.200Z</time>
			</trkpt>
			<trkpt lat="51.65406" lon="6.37005">
				<ele>27.76</ele>
				<time>2025-08-12T17:50:28.416Z</time>
			</trkpt>
			<trkpt lat="51.65341" lon="6.36924">
				<ele>28.79</ele>
				<time>2025-08-12T17:50:33.356Z</time>
			</trkpt>
			<trkpt lat="51.65325" lon="6.36891">
				<ele>29.25</ele>
				<time>2025-08-12T17:50:34.905Z</time>
			</trkpt>
			<trkpt lat="51.65317" lon="6.3686">
				<ele>30.56</ele>
				<time>2025-08-12T17:50:36.144Z</time>
			</trkpt>
			<trkpt lat="51.65314" lon="6.36827">
				<ele>31.96</ele>
				<time>2025-08-12T17:50:37.370Z</time>
			</trkpt>
			<trkpt lat="51.65315" lon="6.36795">
				<ele>33.35</ele>
				<time>2025-08-12T17:50:38.545Z</time>
			</trkpt>
			<trkpt lat="51.65365" lon="6.36281">
				<ele>46.83</ele>
				<time>2025-08-12T17:50:57.213Z</time>
			</trkpt>
			<trkpt lat="51.65362" lon="6.36224">
				<ele>48.83</ele>
				<time>2025-08-12T17:50:59.224Z</time>
			</trkpt>
			<trkpt lat="51.65356" lon="6.36182">
				<ele>50.07</ele>
				<time>2025-08-12T17:51:00.735Z</time>
			</trkpt>
			<trkpt lat="51.65339" lon="6.36093">
				<ele>53.42</ele>
				<time>2025-08-12T17:51:03.986Z</time>
			</trkpt>
			<trkpt lat="51.65328" lon="6.36047">
				<ele>54.45</ele>
				<time>2025-08-12T17:51:05.701Z</time>
			</trkpt>
			<trkpt lat="51.65305" lon="6.3597">
				<ele>55.99</ele>
				<time>2025-08-12T17:51:08.663Z</time>
			</trkpt>
			<trkpt lat="51.65279" lon="6.35857">
				<ele>55</ele>
				<time>2025-08-12T17:51:12.819Z</time>
			</trkpt>
			<trkpt lat="51.65269" lon="6.35828">
				<ele>55.45</ele>
				<time>2025-08-12T17:51:13.960Z</time>
			</trkpt>
			<trkpt lat="51.65192" lon="6.35645">
				<ele>60.7</ele>
				<time>2025-08-12T17:51:21.525Z</time>
			</trkpt>
			<trkpt lat="51.65131" lon="6.35491">
				<ele>63.56</ele>
				<time>2025-08-12T17:51:27.738Z</time>
			</trkpt>
			<trkpt lat="51.65126" lon="6.35476">
				<ele>64.28</ele>
				<time>2025-08-12T17:51:28.316Z</time>
			</trkpt>
			<trkpt lat="51.65103" lon="6.35416">
				<ele>65.26</ele>
				<time>2025-08-12T17:51:30.707Z</time>
			</trkpt>
			<trkpt lat="51.65076" lon="6.35322">
				<ele>66.85</ele>
				<time>2025-08-12T17:51:34.213Z</time>
			</trkpt>
			<trkpt lat="51.65062" lon="6.35256">
				<ele>65.43</ele>
				<time>2025-08-12T17:51:36.573Z</time>
			</trkpt>
			<trkpt lat="51.65034" lon="6.35003">
				<ele>67.04</ele>
				<time>2025-08-12T17:51:45.259Z</time>
			</trkpt>
			<trkpt lat="51.6503" lon="6.34943">
				<ele>66.75</ele>
				<time>2025-08-12T17:51:47.299Z</time>
			</trkpt>
			<trkpt lat="51.6503" lon="6.34881">
				<ele>68.4</ele>
				<time>2025-08-12T17:51:49.397Z</time>
			</trkpt>
			<trkpt lat="51.65042" lon="6.34778">
				<ele>70.05</ele>
				<time>2025-08-12T17:51:52.947Z</time>
			</trkpt>
			<trkpt lat="51.65078" lon="6.346">
				<ele>66.17</ele>
				<time>2025-08-12T17:51:59.306Z</time>
			</trkpt>
			<trkpt lat="51.65089" lon="6.34489">
				<ele>63.49</ele>
				<time>2025-08-12T17:52:03.138Z</time>
			</trkpt>
			<trkpt lat="51.65087" lon="6.34412">
				<ele>57.7</ele>
				<time>2025-08-12T17:52:05.774Z</time>
			</trkpt>
			<trkpt lat="51.65075" lon="6.34315">
				<ele>56.74</ele>
				<time>2025-08-12T17:52:09.168Z</time>
			</trkpt>
			<trkpt lat="51.6503" lon="6.34055">
				<ele>58</ele>
				<time>2025-08-12T17:52:18.505Z</time>
			</trkpt>
			<trkpt lat="51.65003" lon="6.33857">
				<ele>56.21</ele>
				<time>2025-08-12T17:52:25.606Z</time>
			</trkpt>
			<trkpt lat="51.64981" lon="6.33733">
				<ele>54.11</ele>
				<time>2025-08-12T17:52:30.171Z</time>
			</trkpt>
			<trkpt lat="51.649" lon="6.33325">
				<ele>35.7</ele>
				<time>2025-08-12T17:52:45.648Z</time>
			</trkpt>
			<trkpt lat="51.64888" lon="6.33278">
				<ele>35</ele>
				<time>2025-08-12T17:52:47.520Z</time>
			</trkpt>
			<trkpt lat="51.64866" lon="6.33217">
				<ele>33.84</ele>
				<time>2025-08-12T17:52:50.134Z</time>
			</trkpt>
			<trkpt lat="51.64852" lon="6.33175">
				<ele>32.21</ele>
				<time>2025-08-12T17:52:51.910Z</time>
			</trkpt>
			<trkpt lat="51.64797" lon="6.32931">
				<ele>34.33</ele>
				<time>2025-08-12T17:53:01.724Z</time>
			</trkpt>
			<trkpt lat="51.64727" lon="6.32679">
				<ele>28.18</ele>
				<time>2025-08-12T17:53:12.454Z</time>
			</trkpt>
			<trkpt lat="51.6475" lon="6.32658">
				<ele>29</ele>
				<time>2025-08-12T17:53:14.139Z</time>
			</trkpt>
			<trkpt lat="51.6479" lon="6.32582">
				<ele>28</ele>
				<time>2025-08-12T17:53:18.128Z</time>
			</trkpt>
			<trkpt lat="51.64801" lon="6.32573">
				<ele>28</ele>
				<time>2025-08-12T17:53:18.933Z</time>
			</trkpt>
			<trkpt lat="51.64935" lon="6.32565">
				<ele>28</ele>
				<time>2025-08-12T17:53:27.846Z</time>
			</trkpt>
			<trkpt lat="51.64949" lon="6.32561">
				<ele>27.86</ele>
				<time>2025-08-12T17:53:28.809Z</time>
			</trkpt>
			<trkpt lat="51.65027" lon="6.32559">
				<ele>27.97</ele>
				<time>2025-08-12T17:53:34.150Z</time>
			</trkpt>
			<trkpt lat="51.65075" lon="6.32553">
				<ele>27.26</ele>
				<time>2025-08-12T17:53:37.493Z</time>
			</trkpt>
			<trkpt lat="51.65099" lon="6.32552">
				<ele>27</ele>
				<time>2025-08-12T17:53:39.173Z</time>
			</trkpt>
			<trkpt lat="51.65142" lon="6.32546">
				<ele>26.33</ele>
				<time>2025-08-12T17:53:42.214Z</time>
			</trkpt>
			<trkpt lat="51.65205" lon="6.32532">
				<ele>27.87</ele>
				<time>2025-08-12T17:53:46.742Z</time>
			</trkpt>
			<trkpt lat="51.65215" lon="6.32527">
				<ele>28.51</ele>
				<time>2025-08-12T17:53:47.493Z</time>
			</trkpt>
			<trkpt lat="51.65233" lon="6.32523">
				<ele>29.69</ele>
				<time>2025-08-12T17:53:48.799Z</time>
			</trkpt>
			<trkpt lat="51.65338" lon="6.32502">
				<ele>31</ele>
				<time>2025-08-12T17:53:56.487Z</time>
			</trkpt>
			<trkpt lat="51.65386" lon="6.32489">
				<ele>30.62</ele>
				<time>2025-08-12T17:54:00.069Z</time>
			</trkpt>
			<trkpt lat="51.65411" lon="6.32479">
				<ele>30.86</ele>
				<time>2025-08-12T17:54:01.975Z</time>
			</trkpt>
			<trkpt lat="51.65444" lon="6.32457">
				<ele>33.97</ele>
				<time>2025-08-12T17:54:04.630Z</time>
			</trkpt>
			<trkpt lat="51.65457" lon="6.32457">
				<ele>35.38</ele>
				<time>2025-08-12T17:54:05.599Z</time>
			</trkpt>
			<trkpt lat="51.6548" lon="6.32467">
				<ele>36.39</ele>
				<time>2025-08-12T17:54:07.381Z</time>
			</trkpt>
			<trkpt lat="51.65532" lon="6.32477">
				<ele>30.38</ele>
				<time>2025-08-12T17:54:11.317Z</time>
			</trkpt>
			<trkpt lat="51.6564" lon="6.3249">
				<ele>27.7</ele>
				<time>2025-08-12T17:54:19.535Z</time>
			</trkpt>
			<trkpt lat="51.65732" lon="6.32504">
				<ele>27.63</ele>
				<time>2025-08-12T17:54:26.624Z</time>
			</trkpt>
			<trkpt lat="51.6576" lon="6.3252">
				<ele>26.62</ele>
				<time>2025-08-12T17:54:28.916Z</time>
			</trkpt>
			<trkpt lat="51.65786" lon="6.32542">
				<ele>26.54</ele>
				<time>2025-08-12T17:54:31.187Z</time>
			</trkpt>
			<trkpt lat="51.65851" lon="6.32655">
				<ele>28.74</ele>
				<time>2025-08-12T17:54:38.618Z</time>
			</trkpt>
			<trkpt lat="51.65865" lon="6.32682">
				<ele>29.29</ele>
				<time>2025-08-12T17:54:40.321Z</time>
			</trkpt>
			<trkpt lat="51.65929" lon="6.32783">
				<ele>28.04</ele>
				<time>2025-08-12T17:54:47.335Z</time>
			</trkpt>
			<trkpt lat="51.66008" lon="6.32902">
				<ele>31</ele>
				<time>2025-08-12T17:54:55.844Z</time>
			</trkpt>
			<trkpt lat="51.66038" lon="6.32944">
				<ele>30.6</ele>
				<time>2025-08-12T17:54:58.979Z</time>
			</trkpt>
			<trkpt lat="51.66264" lon="6.3324">
				<ele>33</ele>
				<time>2025-08-12T17:55:22.015Z</time>
			</trkpt>
			<trkpt lat="51.66307" lon="6.33273">
				<ele>32.78</ele>
				<time>2025-08-12T17:55:25.780Z</time>
			</trkpt>
			<trkpt lat="51.66351" lon="6.33297">
				<ele>31.35</ele>
				<time>2025-08-12T17:55:29.449Z</time>
			</trkpt>
			<trkpt lat="51.66402" lon="6.33314">
				<ele>30.67</ele>
				<time>2025-08-12T17:55:33.556Z</time>
			</trkpt>
			<trkpt lat="51.66558" lon="6.33331">
				<ele>31</ele>
				<time>2025-08-12T17:55:45.834Z</time>
			</trkpt>
			<trkpt lat="51.66633" lon="6.33342">
				<ele>31</ele>
				<time>2025-08-12T17:55:51.709Z</time>
			</trkpt>
			<trkpt lat="51.66706" lon="6.33364">
				<ele>29.1</ele>
				<time>2025-08-12T17:55:57.472Z</time>
			</trkpt>
			<trkpt lat="51.66726" lon="6.33376">
				<ele>27.31</ele>
				<time>2025-08-12T17:55:59.121Z</time>
			</trkpt>
			<trkpt lat="51.66768" lon="6.33431">
				<ele>27.85</ele>
				<time>2025-08-12T17:56:03.290Z</time>
			</trkpt>
			<trkpt lat="51.6688" lon="6.33513">
				<ele>29</ele>
				<time>2025-08-12T17:56:12.682Z</time>
			</trkpt>
			<trkpt lat="51.66912" lon="6.33566">
				<ele>27.54</ele>
				<time>2025-08-12T17:56:16.153Z</time>
			</trkpt>
			<trkpt lat="51.6693" lon="6.33601">
				<ele>29.27</ele>
				<time>2025-08-12T17:56:18.276Z</time>
			</trkpt>
			<trkpt lat="51.66953" lon="6.33652">
				<ele>33.02</ele>
				<time>2025-08-12T17:56:21.208Z</time>
			</trkpt>
			<trkpt lat="51.66974" lon="6.33686">
				<ele>32.99</ele>
				<time>2025-08-12T17:56:23.429Z</time>
			</trkpt>
			<trkpt lat="51.66995" lon="6.33707">
				<ele>34.22</ele>
				<time>2025-08-12T17:56:25.266Z</time>
			</trkpt>
			<trkpt lat="51.67013" lon="6.33711">
				<ele>34.17</ele>
				<time>2025-08-12T17:56:26.613Z</time>
			</trkpt>
			<trkpt lat="51.67137" lon="6.33656">
				<ele>32.29</ele>
				<time>2025-08-12T17:56:36.037Z</time>
			</trkpt>
			<trkpt lat="51.67365" lon="6.33551">
				<ele>30.15</ele>
				<time>2025-08-12T17:56:52.855Z</time>
			</trkpt>
			<trkpt lat="51.67505" lon="6.33472">
				<ele>31.42</ele>
				<time>2025-08-12T17:57:02.950Z</time>
			</trkpt>
			<trkpt lat="51.67522" lon="6.33467">
				<ele>32.08</ele>
				<time>2025-08-12T17:57:04.102Z</time>
			</trkpt>
			<trkpt lat="51.67753" lon="6.33517">
				<ele>29.54</ele>
				<time>2025-08-12T17:57:19.123Z</time>
			</trkpt>
			<trkpt lat="51.6786" lon="6.33547">
				<ele>31.68</ele>
				<time>2025-08-12T17:57:25.762Z</time>
			</trkpt>
			<trkpt lat="51.67878" lon="6.33555">
				<ele>32</ele>
				<time>2025-08-12T17:57:26.879Z</time>
			</trkpt>
			<trkpt lat="51.67894" lon="6.33582">
				<ele>31.59</ele>
				<time>2025-08-12T17:57:28.254Z</time>
			</trkpt>
			<trkpt lat="51.67909" lon="6.33614">
				<ele>31.34</ele>
				<time>2025-08-12T17:57:29.718Z</time>
			</trkpt>
			<trkpt lat="51.67916" lon="6.33619">
				<ele>31.31</ele>
				<time>2025-08-12T17:57:30.165Z</time>
			</trkpt>
			<trkpt lat="51.67929" lon="6.33573">
				<ele>29.35</ele>
				<time>2025-08-12T17:57:31.985Z</time>
			</trkpt>
			<trkpt lat="51.67945" lon="6.33537">
				<ele>27.96</ele>
				<time>2025-08-12T17:57:33.553Z</time>
			</trkpt>
			<trkpt lat="51.68262" lon="6.32819">
				<ele>23</ele>
				<time>2025-08-12T17:58:01.487Z</time>
			</trkpt>
			<trkpt lat="51.68344" lon="6.32628">
				<ele>24.15</ele>
				<time>2025-08-12T17:58:08.648Z</time>
			</trkpt>
			<trkpt lat="51.68565" lon="6.32097">
				<ele>25</ele>
				<time>2025-08-12T17:58:28.916Z</time>
			</trkpt>
			<trkpt lat="51.68604" lon="6.31995">
				<ele>25</ele>
				<time>2025-08-12T17:58:32.632Z</time>
			</trkpt>
			<trkpt lat="51.68621" lon="6.31937">
				<ele>24.9</ele>
				<time>2025-08-12T17:58:34.596Z</time>
			</trkpt>
			<trkpt lat="51.68579" lon="6.31919">
				<ele>24.09</ele>
				<time>2025-08-12T17:58:36.706Z</time>
			</trkpt>
			<trkpt lat="51.68529" lon="6.31888">
				<ele>23.98</ele>
				<time>2025-08-12T17:58:39.164Z</time>
			</trkpt>
			<trkpt lat="51.68347" lon="6.31754">
				<ele>23.47</ele>
				<time>2025-08-12T17:58:46.997Z</time>
			</trkpt>
			<trkpt lat="51.68244" lon="6.31668">
				<ele>24.18</ele>
				<time>2025-08-12T17:58:50.724Z</time>
			</trkpt>
			<trkpt lat="51.68169" lon="6.31598">
				<ele>23.67</ele>
				<time>2025-08-12T17:58:53.203Z</time>
			</trkpt>
			<trkpt lat="51.68107" lon="6.31534">
				<ele>23.78</ele>
				<time>2025-08-12T17:58:55.141Z</time>
			</trkpt>
			<trkpt lat="51.68071" lon="6.31495">
				<ele>24.41</ele>
				<time>2025-08-12T17:58:56.223Z</time>
			</trkpt>
			<trkpt lat="51.68013" lon="6.31426">
				<ele>26.68</ele>
				<time>2025-08-12T17:58:57.943Z</time>
			</trkpt>
			<trkpt lat="51.67958" lon="6.31355">
				<ele>28</ele>
				<time>2025-08-12T17:58:59.550Z</time>
			</trkpt>
			<trkpt lat="51.67883" lon="6.31249">
				<ele>27.79</ele>
				<time>2025-08-12T17:59:01.749Z</time>
			</trkpt>
			<trkpt lat="51.67849" lon="6.31197">
				<ele>27.9</ele>
				<time>2025-08-12T17:59:02.769Z</time>
			</trkpt>
			<trkpt lat="51.6779" lon="6.31094">
				<ele>29.03</ele>
				<time>2025-08-12T17:59:04.673Z</time>
			</trkpt>
			<trkpt lat="51.67712" lon="6.30956">
				<ele>29.64</ele>
				<time>2025-08-12T17:59:07.298Z</time>
			</trkpt>
			<trkpt lat="51.67632" lon="6.30822">
				<ele>27.17</ele>
				<time>2025-08-12T17:59:10.115Z</time>
			</trkpt>
			<trkpt lat="51.6752" lon="6.30644">
				<ele>27.55</ele>
				<time>2025-08-12T17:59:14.478Z</time>
			</trkpt>
			<trkpt lat="51.67488" lon="6.30589">
				<ele>27.47</ele>
				<time>2025-08-12T17:59:15.928Z</time>
			</trkpt>
			<trkpt lat="51.6745" lon="6.30512">
				<ele>26.2</ele>
				<time>2025-08-12T17:59:17.946Z</time>
			</trkpt>
			<trkpt lat="51.67432" lon="6.30473">
				<ele>26.96</ele>
				<time>2025-08-12T17:59:19.000Z</time>
			</trkpt>
			<trkpt lat="51.67407" lon="6.30404">
				<ele>28</ele>
				<time>2025-08-12T17:59:20.821Z</time>
			</trkpt>
			<trkpt lat="51.67298" lon="6.30061">
				<ele>30.52</ele>
				<time>2025-08-12T17:59:31.407Z</time>
			</trkpt>
			<trkpt lat="51.67261" lon="6.29937">
				<ele>30.65</ele>
				<time>2025-08-12T17:59:36.034Z</time>
			</trkpt>
			<trkpt lat="51.67237" lon="6.29844">
				<ele>32.89</ele>
				<time>2025-08-12T17:59:39.745Z</time>
			</trkpt>
			<trkpt lat="51.67228" lon="6.298">
				<ele>33.63</ele>
				<time>2025-08-12T17:59:41.550Z</time>
			</trkpt>
			<trkpt lat="51.67215" lon="6.29711">
				<ele>37.91</ele>
				<time>2025-08-12T17:59:45.301Z</time>
			</trkpt>
			<trkpt lat="51.67211" lon="6.29671">
				<ele>39.03</ele>
				<time>2025-08-12T17:59:47.046Z</time>
			</trkpt>
			<trkpt lat="51.67208" lon="6.29631">
				<ele>40.01</ele>
				<time>2025-08-12T17:59:48.833Z</time>
			</trkpt>
			<trkpt lat="51.67205" lon="6.29513">
				<ele>43.27</ele>
				<time>2025-08-12T17:59:54.382Z</time>
			</trkpt>
			<trkpt lat="51.67206" lon="6.2934">
				<ele>49.88</ele>
				<time>2025-08-12T18:00:03.391Z</time>
			</trkpt>
			<trkpt lat="51.67204" lon="6.29221">
				<ele>50.65</ele>
				<time>2025-08-12T18:00:10.239Z</time>
			</trkpt>
			<trkpt lat="51.67199" lon="6.29139">
				<ele>50.8</ele>
				<time>2025-08-12T18:00:15.305Z</time>
			</trkpt>
			<trkpt lat="51.67191" lon="6.29033">
				<ele>50.43</ele>
				<time>2025-08-12T18:00:22.287Z</time>
			</trkpt>
			<trkpt lat="51.6718" lon="6.28935">
				<ele>49.67</ele>
				<time>2025-08-12T18:00:29.238Z</time>
			</trkpt>
			<trkpt lat="51.67179" lon="6.28951">
				<ele>50.08</ele>
				<time>2025-08-12T18:00:30.402Z</time>
			</trkpt>
			<trkpt lat="51.67176" lon="6.28951">
				<ele>50.27</ele>
				<time>2025-08-12T18:00:30.754Z</time>
			</trkpt>
			<trkpt lat="51.67169" lon="6.28962">
				<ele>50.78</ele>
				<time>2025-08-12T18:00:31.909Z</time>
			</trkpt>
			<trkpt lat="51.67169" lon="6.28995">
				<ele>51.62</ele>
				<time>2025-08-12T18:00:40.003Z</time>
			</trkpt>
			<trkpt lat="51.67165" lon="6.29">
				<ele>52.08</ele>
				<time>2025-08-12T18:00:43.351Z</time>
			</trkpt>
			<trkpt lat="51.67145" lon="6.29004">
				<ele>53.55</ele>
				<time>2025-08-12T18:00:59.395Z</time>
			</trkpt>
		</trkseg>
	</trk>
</gpx>